<?xml version="1.0" encoding="UTF-8" standalone="no" ?>
<gpx xmlns="http://www.topografix.com/GPX/1/1" xmlns:xsi="http://www.w3.org/2001/XMLSchema-instance" xsi:schemaLocation="http://www.topografix.com/GPX/1/1 http://www.topografix.com/GPX/1/1/gpx.xsd" version="1.1" creator="VisuGPX - https://www.visugpx.com">
  <metadata>
    <name>Le Passage d'Agen</name>
  </metadata>
  <trk>
    <name><![CDATA[Pierre_NARFIT_2026-02-08_14-04-26]]></name>
    <extensions>
      <line xmlns="http://www.topografix.com/GPX/gpx_style/0/2">
        <color>0000FF</color>
        <width>4</width>
      </line>
    </extensions>
    <trkseg>
      <trkpt lat="44.19928" lon="0.6066">
        <ele>45</ele>
        <time>2026-02-08T13:04:36.364Z</time>
      </trkpt>
      <trkpt lat="44.19925" lon="0.60671">
        <ele>45</ele>
        <time>2026-02-08T13:04:37.364Z</time>
      </trkpt>
      <trkpt lat="44.19923" lon="0.60676">
        <ele>45</ele>
        <time>2026-02-08T13:04:39.364Z</time>
      </trkpt>
      <trkpt lat="44.19918" lon="0.60688">
        <ele>45</ele>
        <time>2026-02-08T13:04:47.364Z</time>
      </trkpt>
      <trkpt lat="44.19917" lon="0.60699">
        <ele>45</ele>
        <time>2026-02-08T13:04:55.364Z</time>
      </trkpt>
      <trkpt lat="44.19915" lon="0.60707">
        <ele>45</ele>
        <time>2026-02-08T13:05:01.364Z</time>
      </trkpt>
      <trkpt lat="44.19917" lon="0.6071">
        <ele>45</ele>
        <time>2026-02-08T13:05:05.364Z</time>
      </trkpt>
      <trkpt lat="44.19925" lon="0.60714">
        <ele>45</ele>
        <time>2026-02-08T13:05:13.364Z</time>
      </trkpt>
      <trkpt lat="44.19936" lon="0.60722">
        <ele>45</ele>
        <time>2026-02-08T13:05:25.364Z</time>
      </trkpt>
      <trkpt lat="44.19952" lon="0.60729">
        <ele>45</ele>
        <time>2026-02-08T13:05:41.364Z</time>
      </trkpt>
      <trkpt lat="44.1996" lon="0.60735">
        <ele>45</ele>
        <time>2026-02-08T13:05:49.364Z</time>
      </trkpt>
      <trkpt lat="44.19969" lon="0.60738">
        <ele>45</ele>
        <time>2026-02-08T13:05:57.364Z</time>
      </trkpt>
      <trkpt lat="44.19973" lon="0.60739">
        <ele>45</ele>
        <time>2026-02-08T13:06:01.364Z</time>
      </trkpt>
      <trkpt lat="44.19976" lon="0.60742">
        <ele>44.8</ele>
        <time>2026-02-08T13:06:33.364Z</time>
      </trkpt>
      <trkpt lat="44.19982" lon="0.60739">
        <ele>44.6</ele>
        <time>2026-02-08T13:06:41.364Z</time>
      </trkpt>
      <trkpt lat="44.19995" lon="0.60723">
        <ele>44.9</ele>
        <time>2026-02-08T13:06:57.364Z</time>
      </trkpt>
      <trkpt lat="44.20001" lon="0.60717">
        <ele>45</ele>
        <time>2026-02-08T13:07:05.364Z</time>
      </trkpt>
      <trkpt lat="44.20023" lon="0.60707">
        <ele>45</ele>
        <time>2026-02-08T13:07:25.364Z</time>
      </trkpt>
      <trkpt lat="44.20031" lon="0.60705">
        <ele>44.9</ele>
        <time>2026-02-08T13:07:33.364Z</time>
      </trkpt>
      <trkpt lat="44.2004" lon="0.60704">
        <ele>44.7</ele>
        <time>2026-02-08T13:07:41.364Z</time>
      </trkpt>
      <trkpt lat="44.2005" lon="0.60706">
        <ele>44.4</ele>
        <time>2026-02-08T13:07:49.364Z</time>
      </trkpt>
      <trkpt lat="44.20054" lon="0.60705">
        <ele>44.3</ele>
        <time>2026-02-08T13:07:53.364Z</time>
      </trkpt>
      <trkpt lat="44.2007" lon="0.60695">
        <ele>44.9</ele>
        <time>2026-02-08T13:08:09.364Z</time>
      </trkpt>
      <trkpt lat="44.20078" lon="0.6069">
        <ele>45</ele>
        <time>2026-02-08T13:08:17.364Z</time>
      </trkpt>
      <trkpt lat="44.20085" lon="0.60686">
        <ele>44.9</ele>
        <time>2026-02-08T13:08:25.364Z</time>
      </trkpt>
      <trkpt lat="44.20092" lon="0.60685">
        <ele>44.6</ele>
        <time>2026-02-08T13:08:31.364Z</time>
      </trkpt>
      <trkpt lat="44.20095" lon="0.60682">
        <ele>44.5</ele>
        <time>2026-02-08T13:08:35.364Z</time>
      </trkpt>
      <trkpt lat="44.20112" lon="0.60673">
        <ele>44.5</ele>
        <time>2026-02-08T13:08:51.364Z</time>
      </trkpt>
      <trkpt lat="44.20117" lon="0.60672">
        <ele>44.6</ele>
        <time>2026-02-08T13:08:55.364Z</time>
      </trkpt>
      <trkpt lat="44.20121" lon="0.6067">
        <ele>44.8</ele>
        <time>2026-02-08T13:08:59.364Z</time>
      </trkpt>
      <trkpt lat="44.20122" lon="0.60668">
        <ele>44.9</ele>
        <time>2026-02-08T13:09:01.364Z</time>
      </trkpt>
      <trkpt lat="44.20127" lon="0.60666">
        <ele>45</ele>
        <time>2026-02-08T13:09:05.364Z</time>
      </trkpt>
      <trkpt lat="44.20129" lon="0.60664">
        <ele>44.9</ele>
        <time>2026-02-08T13:09:07.364Z</time>
      </trkpt>
      <trkpt lat="44.20133" lon="0.60663">
        <ele>44.9</ele>
        <time>2026-02-08T13:09:11.364Z</time>
      </trkpt>
      <trkpt lat="44.20142" lon="0.60659">
        <ele>44.7</ele>
        <time>2026-02-08T13:09:19.364Z</time>
      </trkpt>
      <trkpt lat="44.20152" lon="0.60657">
        <ele>44.5</ele>
        <time>2026-02-08T13:09:27.364Z</time>
      </trkpt>
      <trkpt lat="44.2016" lon="0.60652">
        <ele>44.5</ele>
        <time>2026-02-08T13:09:35.364Z</time>
      </trkpt>
      <trkpt lat="44.20164" lon="0.60648">
        <ele>44.6</ele>
        <time>2026-02-08T13:09:39.364Z</time>
      </trkpt>
      <trkpt lat="44.20166" lon="0.60645">
        <ele>44.8</ele>
        <time>2026-02-08T13:09:43.364Z</time>
      </trkpt>
      <trkpt lat="44.20163" lon="0.60628">
        <ele>44.5</ele>
        <time>2026-02-08T13:09:55.364Z</time>
      </trkpt>
      <trkpt lat="44.20163" lon="0.6062">
        <ele>44.3</ele>
        <time>2026-02-08T13:09:59.364Z</time>
      </trkpt>
      <trkpt lat="44.20164" lon="0.60613">
        <ele>44.1</ele>
        <time>2026-02-08T13:10:03.364Z</time>
      </trkpt>
      <trkpt lat="44.20164" lon="0.60605">
        <ele>44</ele>
        <time>2026-02-08T13:10:07.364Z</time>
      </trkpt>
      <trkpt lat="44.20169" lon="0.6058">
        <ele>44.1</ele>
        <time>2026-02-08T13:10:23.364Z</time>
      </trkpt>
      <trkpt lat="44.20169" lon="0.60579">
        <ele>44.2</ele>
        <time>2026-02-08T13:10:31.364Z</time>
      </trkpt>
      <trkpt lat="44.2017" lon="0.60569">
        <ele>44.5</ele>
        <time>2026-02-08T13:10:39.364Z</time>
      </trkpt>
      <trkpt lat="44.20165" lon="0.60544">
        <ele>45</ele>
        <time>2026-02-08T13:10:55.364Z</time>
      </trkpt>
      <trkpt lat="44.20166" lon="0.60537">
        <ele>45</ele>
        <time>2026-02-08T13:10:59.364Z</time>
      </trkpt>
      <trkpt lat="44.20165" lon="0.60533">
        <ele>45</ele>
        <time>2026-02-08T13:11:01.364Z</time>
      </trkpt>
      <trkpt lat="44.20166" lon="0.60528">
        <ele>45</ele>
        <time>2026-02-08T13:11:03.364Z</time>
      </trkpt>
      <trkpt lat="44.20164" lon="0.60513">
        <ele>45.1</ele>
        <time>2026-02-08T13:11:11.364Z</time>
      </trkpt>
      <trkpt lat="44.2016" lon="0.605">
        <ele>45.2</ele>
        <time>2026-02-08T13:11:19.364Z</time>
      </trkpt>
      <trkpt lat="44.2016" lon="0.60486">
        <ele>45.6</ele>
        <time>2026-02-08T13:11:27.364Z</time>
      </trkpt>
      <trkpt lat="44.20157" lon="0.60459">
        <ele>46.2</ele>
        <time>2026-02-08T13:11:43.364Z</time>
      </trkpt>
      <trkpt lat="44.20156" lon="0.60447">
        <ele>46.3</ele>
        <time>2026-02-08T13:11:51.364Z</time>
      </trkpt>
      <trkpt lat="44.20153" lon="0.60428">
        <ele>46.8</ele>
        <time>2026-02-08T13:12:03.364Z</time>
      </trkpt>
      <trkpt lat="44.20151" lon="0.60425">
        <ele>46.9</ele>
        <time>2026-02-08T13:12:05.364Z</time>
      </trkpt>
      <trkpt lat="44.20151" lon="0.60419">
        <ele>47</ele>
        <time>2026-02-08T13:12:09.364Z</time>
      </trkpt>
      <trkpt lat="44.20153" lon="0.60412">
        <ele>47</ele>
        <time>2026-02-08T13:12:13.364Z</time>
      </trkpt>
      <trkpt lat="44.20152" lon="0.60406">
        <ele>47</ele>
        <time>2026-02-08T13:12:17.364Z</time>
      </trkpt>
      <trkpt lat="44.2015" lon="0.60402">
        <ele>47</ele>
        <time>2026-02-08T13:12:19.364Z</time>
      </trkpt>
      <trkpt lat="44.20147" lon="0.60399">
        <ele>47</ele>
        <time>2026-02-08T13:12:23.364Z</time>
      </trkpt>
      <trkpt lat="44.20147" lon="0.60394">
        <ele>47</ele>
        <time>2026-02-08T13:12:27.364Z</time>
      </trkpt>
      <trkpt lat="44.20139" lon="0.6037">
        <ele>47</ele>
        <time>2026-02-08T13:12:41.364Z</time>
      </trkpt>
      <trkpt lat="44.2014" lon="0.60359">
        <ele>46.9</ele>
        <time>2026-02-08T13:12:46.364Z</time>
      </trkpt>
      <trkpt lat="44.20138" lon="0.60351">
        <ele>46.6</ele>
        <time>2026-02-08T13:12:50.364Z</time>
      </trkpt>
      <trkpt lat="44.20136" lon="0.60348">
        <ele>46.5</ele>
        <time>2026-02-08T13:12:52.364Z</time>
      </trkpt>
      <trkpt lat="44.20135" lon="0.60341">
        <ele>46.2</ele>
        <time>2026-02-08T13:12:56.364Z</time>
      </trkpt>
      <trkpt lat="44.20124" lon="0.60323">
        <ele>46.2</ele>
        <time>2026-02-08T13:13:12.364Z</time>
      </trkpt>
      <trkpt lat="44.20124" lon="0.60317">
        <ele>46.3</ele>
        <time>2026-02-08T13:13:17.364Z</time>
      </trkpt>
      <trkpt lat="44.20116" lon="0.60299">
        <ele>46.2</ele>
        <time>2026-02-08T13:13:31.364Z</time>
      </trkpt>
      <trkpt lat="44.20116" lon="0.60294">
        <ele>46.2</ele>
        <time>2026-02-08T13:13:33.364Z</time>
      </trkpt>
      <trkpt lat="44.20113" lon="0.60289">
        <ele>46.1</ele>
        <time>2026-02-08T13:13:37.364Z</time>
      </trkpt>
      <trkpt lat="44.20109" lon="0.60276">
        <ele>46.1</ele>
        <time>2026-02-08T13:13:45.364Z</time>
      </trkpt>
      <trkpt lat="44.20099" lon="0.60255">
        <ele>46.9</ele>
        <time>2026-02-08T13:14:01.364Z</time>
      </trkpt>
      <trkpt lat="44.20093" lon="0.60239">
        <ele>46.7</ele>
        <time>2026-02-08T13:14:13.364Z</time>
      </trkpt>
      <trkpt lat="44.2008" lon="0.60213">
        <ele>46.4</ele>
        <time>2026-02-08T13:16:07.364Z</time>
      </trkpt>
      <trkpt lat="44.20074" lon="0.60206">
        <ele>46.7</ele>
        <time>2026-02-08T13:16:15.364Z</time>
      </trkpt>
      <trkpt lat="44.20046" lon="0.60155">
        <ele>47</ele>
        <time>2026-02-08T13:16:55.364Z</time>
      </trkpt>
      <trkpt lat="44.2004" lon="0.60146">
        <ele>47</ele>
        <time>2026-02-08T13:17:03.364Z</time>
      </trkpt>
      <trkpt lat="44.20034" lon="0.60136">
        <ele>47</ele>
        <time>2026-02-08T13:17:11.364Z</time>
      </trkpt>
      <trkpt lat="44.20026" lon="0.60127">
        <ele>47</ele>
        <time>2026-02-08T13:17:19.364Z</time>
      </trkpt>
      <trkpt lat="44.20019" lon="0.60118">
        <ele>46.9</ele>
        <time>2026-02-08T13:17:27.364Z</time>
      </trkpt>
      <trkpt lat="44.20016" lon="0.60116">
        <ele>46.9</ele>
        <time>2026-02-08T13:17:31.364Z</time>
      </trkpt>
      <trkpt lat="44.1998" lon="0.60051">
        <ele>47</ele>
        <time>2026-02-08T13:18:19.364Z</time>
      </trkpt>
      <trkpt lat="44.19955" lon="0.60011">
        <ele>47</ele>
        <time>2026-02-08T13:18:51.364Z</time>
      </trkpt>
      <trkpt lat="44.19951" lon="0.60007">
        <ele>47</ele>
        <time>2026-02-08T13:18:55.364Z</time>
      </trkpt>
      <trkpt lat="44.19941" lon="0.59985">
        <ele>47</ele>
        <time>2026-02-08T13:19:11.364Z</time>
      </trkpt>
      <trkpt lat="44.19936" lon="0.59973">
        <ele>47</ele>
        <time>2026-02-08T13:19:19.364Z</time>
      </trkpt>
      <trkpt lat="44.19936" lon="0.59966">
        <ele>46.8</ele>
        <time>2026-02-08T13:19:23.364Z</time>
      </trkpt>
      <trkpt lat="44.19938" lon="0.5996">
        <ele>46.6</ele>
        <time>2026-02-08T13:19:27.364Z</time>
      </trkpt>
      <trkpt lat="44.19945" lon="0.5995">
        <ele>46.2</ele>
        <time>2026-02-08T13:19:35.364Z</time>
      </trkpt>
      <trkpt lat="44.19949" lon="0.59946">
        <ele>46.1</ele>
        <time>2026-02-08T13:19:39.364Z</time>
      </trkpt>
      <trkpt lat="44.19954" lon="0.59935">
        <ele>46</ele>
        <time>2026-02-08T13:19:47.364Z</time>
      </trkpt>
      <trkpt lat="44.19958" lon="0.5993">
        <ele>46</ele>
        <time>2026-02-08T13:19:51.364Z</time>
      </trkpt>
      <trkpt lat="44.19959" lon="0.59924">
        <ele>46</ele>
        <time>2026-02-08T13:19:55.364Z</time>
      </trkpt>
      <trkpt lat="44.19959" lon="0.59918">
        <ele>46</ele>
        <time>2026-02-08T13:19:59.364Z</time>
      </trkpt>
      <trkpt lat="44.19957" lon="0.59905">
        <ele>46</ele>
        <time>2026-02-08T13:20:07.364Z</time>
      </trkpt>
      <trkpt lat="44.19954" lon="0.599">
        <ele>46</ele>
        <time>2026-02-08T13:20:11.364Z</time>
      </trkpt>
      <trkpt lat="44.19942" lon="0.59891">
        <ele>46.1</ele>
        <time>2026-02-08T13:20:23.364Z</time>
      </trkpt>
      <trkpt lat="44.19937" lon="0.5989">
        <ele>46.3</ele>
        <time>2026-02-08T13:20:27.364Z</time>
      </trkpt>
      <trkpt lat="44.1993" lon="0.59883">
        <ele>46.4</ele>
        <time>2026-02-08T13:20:35.364Z</time>
      </trkpt>
      <trkpt lat="44.19907" lon="0.59867">
        <ele>46.5</ele>
        <time>2026-02-08T13:20:59.364Z</time>
      </trkpt>
      <trkpt lat="44.19899" lon="0.5986">
        <ele>46.6</ele>
        <time>2026-02-08T13:21:07.364Z</time>
      </trkpt>
      <trkpt lat="44.19883" lon="0.59847">
        <ele>47.1</ele>
        <time>2026-02-08T13:21:23.364Z</time>
      </trkpt>
      <trkpt lat="44.1986" lon="0.59829">
        <ele>48</ele>
        <time>2026-02-08T13:21:47.364Z</time>
      </trkpt>
      <trkpt lat="44.19851" lon="0.59825">
        <ele>48</ele>
        <time>2026-02-08T13:21:55.364Z</time>
      </trkpt>
      <trkpt lat="44.19832" lon="0.59821">
        <ele>48</ele>
        <time>2026-02-08T13:22:11.364Z</time>
      </trkpt>
      <trkpt lat="44.19827" lon="0.59816">
        <ele>48</ele>
        <time>2026-02-08T13:22:35.364Z</time>
      </trkpt>
      <trkpt lat="44.19828" lon="0.59812">
        <ele>48</ele>
        <time>2026-02-08T13:22:59.364Z</time>
      </trkpt>
      <trkpt lat="44.19827" lon="0.59801">
        <ele>48</ele>
        <time>2026-02-08T13:23:07.364Z</time>
      </trkpt>
      <trkpt lat="44.19829" lon="0.59788">
        <ele>48.1</ele>
        <time>2026-02-08T13:23:15.364Z</time>
      </trkpt>
      <trkpt lat="44.19832" lon="0.59776">
        <ele>48.1</ele>
        <time>2026-02-08T13:23:23.364Z</time>
      </trkpt>
      <trkpt lat="44.19832" lon="0.59769">
        <ele>48.4</ele>
        <time>2026-02-08T13:23:27.364Z</time>
      </trkpt>
      <trkpt lat="44.19837" lon="0.59751">
        <ele>48.9</ele>
        <time>2026-02-08T13:23:39.364Z</time>
      </trkpt>
      <trkpt lat="44.1984" lon="0.59724">
        <ele>49</ele>
        <time>2026-02-08T13:23:55.364Z</time>
      </trkpt>
      <trkpt lat="44.19843" lon="0.59712">
        <ele>49</ele>
        <time>2026-02-08T13:24:03.364Z</time>
      </trkpt>
      <trkpt lat="44.19845" lon="0.597">
        <ele>49</ele>
        <time>2026-02-08T13:24:11.364Z</time>
      </trkpt>
      <trkpt lat="44.19884" lon="0.59565">
        <ele>48.7</ele>
        <time>2026-02-08T13:25:47.364Z</time>
      </trkpt>
      <trkpt lat="44.19891" lon="0.59543">
        <ele>48.8</ele>
        <time>2026-02-08T13:26:03.364Z</time>
      </trkpt>
      <trkpt lat="44.19919" lon="0.59449">
        <ele>48.7</ele>
        <time>2026-02-08T13:27:07.364Z</time>
      </trkpt>
      <trkpt lat="44.19935" lon="0.59411">
        <ele>47.5</ele>
        <time>2026-02-08T13:27:39.364Z</time>
      </trkpt>
      <trkpt lat="44.19943" lon="0.59389">
        <ele>47.7</ele>
        <time>2026-02-08T13:27:55.364Z</time>
      </trkpt>
      <trkpt lat="44.19979" lon="0.59305">
        <ele>45.8</ele>
        <time>2026-02-08T13:28:55.364Z</time>
      </trkpt>
      <trkpt lat="44.19982" lon="0.59294">
        <ele>46.8</ele>
        <time>2026-02-08T13:29:05.364Z</time>
      </trkpt>
      <trkpt lat="44.19984" lon="0.59292">
        <ele>46.8</ele>
        <time>2026-02-08T13:29:13.364Z</time>
      </trkpt>
      <trkpt lat="44.19993" lon="0.59268">
        <ele>48.1</ele>
        <time>2026-02-08T13:33:09.364Z</time>
      </trkpt>
      <trkpt lat="44.19996" lon="0.59256">
        <ele>48.6</ele>
        <time>2026-02-08T13:33:17.364Z</time>
      </trkpt>
      <trkpt lat="44.20005" lon="0.59238">
        <ele>48.1</ele>
        <time>2026-02-08T13:33:29.364Z</time>
      </trkpt>
      <trkpt lat="44.20009" lon="0.59232">
        <ele>47.7</ele>
        <time>2026-02-08T13:33:33.364Z</time>
      </trkpt>
      <trkpt lat="44.2002" lon="0.59209">
        <ele>48.1</ele>
        <time>2026-02-08T13:33:49.364Z</time>
      </trkpt>
      <trkpt lat="44.20025" lon="0.59197">
        <ele>48.8</ele>
        <time>2026-02-08T13:33:57.364Z</time>
      </trkpt>
      <trkpt lat="44.20034" lon="0.59182">
        <ele>48.6</ele>
        <time>2026-02-08T13:34:09.364Z</time>
      </trkpt>
      <trkpt lat="44.20036" lon="0.59176">
        <ele>48.7</ele>
        <time>2026-02-08T13:34:13.364Z</time>
      </trkpt>
      <trkpt lat="44.20047" lon="0.59157">
        <ele>49.1</ele>
        <time>2026-02-08T13:34:29.364Z</time>
      </trkpt>
      <trkpt lat="44.20058" lon="0.59129">
        <ele>48.8</ele>
        <time>2026-02-08T13:34:53.364Z</time>
      </trkpt>
      <trkpt lat="44.20065" lon="0.59117">
        <ele>48.8</ele>
        <time>2026-02-08T13:35:21.364Z</time>
      </trkpt>
      <trkpt lat="44.20074" lon="0.59095">
        <ele>49</ele>
        <time>2026-02-08T13:35:37.364Z</time>
      </trkpt>
      <trkpt lat="44.20084" lon="0.59075">
        <ele>48.9</ele>
        <time>2026-02-08T13:35:53.364Z</time>
      </trkpt>
      <trkpt lat="44.2009" lon="0.59066">
        <ele>48.5</ele>
        <time>2026-02-08T13:36:01.364Z</time>
      </trkpt>
      <trkpt lat="44.20099" lon="0.59044">
        <ele>48.1</ele>
        <time>2026-02-08T13:36:17.364Z</time>
      </trkpt>
      <trkpt lat="44.20104" lon="0.59034">
        <ele>48.1</ele>
        <time>2026-02-08T13:36:25.364Z</time>
      </trkpt>
      <trkpt lat="44.20114" lon="0.59012">
        <ele>48.4</ele>
        <time>2026-02-08T13:36:41.364Z</time>
      </trkpt>
      <trkpt lat="44.20144" lon="0.58949">
        <ele>48.5</ele>
        <time>2026-02-08T13:37:29.364Z</time>
      </trkpt>
      <trkpt lat="44.20147" lon="0.58944">
        <ele>48.1</ele>
        <time>2026-02-08T13:37:37.364Z</time>
      </trkpt>
      <trkpt lat="44.20165" lon="0.58899">
        <ele>48.7</ele>
        <time>2026-02-08T13:38:09.364Z</time>
      </trkpt>
      <trkpt lat="44.20175" lon="0.58882">
        <ele>48</ele>
        <time>2026-02-08T13:38:25.364Z</time>
      </trkpt>
      <trkpt lat="44.20185" lon="0.58863">
        <ele>47.6</ele>
        <time>2026-02-08T13:38:41.364Z</time>
      </trkpt>
      <trkpt lat="44.2021" lon="0.58805">
        <ele>47.5</ele>
        <time>2026-02-08T13:39:25.364Z</time>
      </trkpt>
      <trkpt lat="44.2022" lon="0.58786">
        <ele>47.8</ele>
        <time>2026-02-08T13:39:41.364Z</time>
      </trkpt>
      <trkpt lat="44.20232" lon="0.58768">
        <ele>47.4</ele>
        <time>2026-02-08T13:39:57.364Z</time>
      </trkpt>
      <trkpt lat="44.20242" lon="0.58748">
        <ele>47.6</ele>
        <time>2026-02-08T13:40:13.364Z</time>
      </trkpt>
      <trkpt lat="44.2026" lon="0.58706">
        <ele>47.8</ele>
        <time>2026-02-08T13:40:45.364Z</time>
      </trkpt>
      <trkpt lat="44.20266" lon="0.58686">
        <ele>48</ele>
        <time>2026-02-08T13:41:17.364Z</time>
      </trkpt>
      <trkpt lat="44.20266" lon="0.58681">
        <ele>48</ele>
        <time>2026-02-08T13:42:21.364Z</time>
      </trkpt>
      <trkpt lat="44.20267" lon="0.58679">
        <ele>48</ele>
        <time>2026-02-08T13:43:23.364Z</time>
      </trkpt>
      <trkpt lat="44.20271" lon="0.58676">
        <ele>48</ele>
        <time>2026-02-08T13:43:41.364Z</time>
      </trkpt>
      <trkpt lat="44.20278" lon="0.58681">
        <ele>48</ele>
        <time>2026-02-08T13:43:55.364Z</time>
      </trkpt>
      <trkpt lat="44.20284" lon="0.58682">
        <ele>48</ele>
        <time>2026-02-08T13:44:01.364Z</time>
      </trkpt>
      <trkpt lat="44.20292" lon="0.58681">
        <ele>48</ele>
        <time>2026-02-08T13:44:11.364Z</time>
      </trkpt>
      <trkpt lat="44.20296" lon="0.58683">
        <ele>48</ele>
        <time>2026-02-08T13:44:15.364Z</time>
      </trkpt>
      <trkpt lat="44.20312" lon="0.58684">
        <ele>47.4</ele>
        <time>2026-02-08T13:44:29.364Z</time>
      </trkpt>
      <trkpt lat="44.20319" lon="0.58689">
        <ele>47.1</ele>
        <time>2026-02-08T13:44:39.364Z</time>
      </trkpt>
      <trkpt lat="44.2033" lon="0.58688">
        <ele>46.3</ele>
        <time>2026-02-08T13:44:53.364Z</time>
      </trkpt>
      <trkpt lat="44.20348" lon="0.58676">
        <ele>45</ele>
        <time>2026-02-08T13:45:13.364Z</time>
      </trkpt>
      <trkpt lat="44.20357" lon="0.58674">
        <ele>45.6</ele>
        <time>2026-02-08T13:45:21.364Z</time>
      </trkpt>
      <trkpt lat="44.20362" lon="0.58675">
        <ele>45.9</ele>
        <time>2026-02-08T13:45:27.364Z</time>
      </trkpt>
      <trkpt lat="44.20364" lon="0.5868">
        <ele>45.2</ele>
        <time>2026-02-08T13:45:33.364Z</time>
      </trkpt>
      <trkpt lat="44.20368" lon="0.5869">
        <ele>44.5</ele>
        <time>2026-02-08T13:45:49.364Z</time>
      </trkpt>
      <trkpt lat="44.20369" lon="0.5869">
        <ele>44.5</ele>
        <time>2026-02-08T13:45:53.364Z</time>
      </trkpt>
      <trkpt lat="44.20371" lon="0.58699">
        <ele>44.4</ele>
        <time>2026-02-08T13:46:01.364Z</time>
      </trkpt>
      <trkpt lat="44.20375" lon="0.58709">
        <ele>45.3</ele>
        <time>2026-02-08T13:46:09.364Z</time>
      </trkpt>
      <trkpt lat="44.20381" lon="0.58732">
        <ele>46</ele>
        <time>2026-02-08T13:46:25.364Z</time>
      </trkpt>
      <trkpt lat="44.20385" lon="0.58742">
        <ele>45.9</ele>
        <time>2026-02-08T13:46:33.364Z</time>
      </trkpt>
      <trkpt lat="44.20386" lon="0.58748">
        <ele>45.7</ele>
        <time>2026-02-08T13:46:37.364Z</time>
      </trkpt>
      <trkpt lat="44.20391" lon="0.58757">
        <ele>45.3</ele>
        <time>2026-02-08T13:46:45.364Z</time>
      </trkpt>
      <trkpt lat="44.20401" lon="0.588">
        <ele>44.5</ele>
        <time>2026-02-08T13:47:15.364Z</time>
      </trkpt>
      <trkpt lat="44.20411" lon="0.58834">
        <ele>46.2</ele>
        <time>2026-02-08T13:47:39.364Z</time>
      </trkpt>
      <trkpt lat="44.20414" lon="0.58852">
        <ele>46.6</ele>
        <time>2026-02-08T13:47:51.364Z</time>
      </trkpt>
      <trkpt lat="44.20415" lon="0.58862">
        <ele>46.6</ele>
        <time>2026-02-08T13:48:19.364Z</time>
      </trkpt>
      <trkpt lat="44.20416" lon="0.58871">
        <ele>45.9</ele>
        <time>2026-02-08T13:48:27.364Z</time>
      </trkpt>
      <trkpt lat="44.20419" lon="0.58878">
        <ele>45.1</ele>
        <time>2026-02-08T13:48:31.364Z</time>
      </trkpt>
      <trkpt lat="44.20424" lon="0.58904">
        <ele>44</ele>
        <time>2026-02-08T13:48:47.364Z</time>
      </trkpt>
      <trkpt lat="44.20425" lon="0.58917">
        <ele>43.9</ele>
        <time>2026-02-08T13:48:55.364Z</time>
      </trkpt>
      <trkpt lat="44.20431" lon="0.58935">
        <ele>44.8</ele>
        <time>2026-02-08T13:49:07.364Z</time>
      </trkpt>
      <trkpt lat="44.20434" lon="0.5894">
        <ele>45.3</ele>
        <time>2026-02-08T13:49:11.364Z</time>
      </trkpt>
      <trkpt lat="44.20437" lon="0.58954">
        <ele>45.9</ele>
        <time>2026-02-08T13:49:21.364Z</time>
      </trkpt>
      <trkpt lat="44.20439" lon="0.58974">
        <ele>46.2</ele>
        <time>2026-02-08T13:49:35.364Z</time>
      </trkpt>
      <trkpt lat="44.20446" lon="0.5899">
        <ele>45.7</ele>
        <time>2026-02-08T13:49:47.364Z</time>
      </trkpt>
      <trkpt lat="44.20447" lon="0.58998">
        <ele>45.1</ele>
        <time>2026-02-08T13:49:51.364Z</time>
      </trkpt>
      <trkpt lat="44.20447" lon="0.59004">
        <ele>44.7</ele>
        <time>2026-02-08T13:49:55.364Z</time>
      </trkpt>
      <trkpt lat="44.20454" lon="0.59024">
        <ele>44.1</ele>
        <time>2026-02-08T13:50:07.364Z</time>
      </trkpt>
      <trkpt lat="44.20457" lon="0.59038">
        <ele>44.3</ele>
        <time>2026-02-08T13:50:19.364Z</time>
      </trkpt>
      <trkpt lat="44.2046" lon="0.59044">
        <ele>44.7</ele>
        <time>2026-02-08T13:50:23.364Z</time>
      </trkpt>
      <trkpt lat="44.20463" lon="0.59058">
        <ele>45.3</ele>
        <time>2026-02-08T13:50:31.364Z</time>
      </trkpt>
      <trkpt lat="44.20464" lon="0.59069">
        <ele>45.6</ele>
        <time>2026-02-08T13:50:39.364Z</time>
      </trkpt>
      <trkpt lat="44.20465" lon="0.59081">
        <ele>45.6</ele>
        <time>2026-02-08T13:50:47.364Z</time>
      </trkpt>
      <trkpt lat="44.20467" lon="0.59093">
        <ele>45.8</ele>
        <time>2026-02-08T13:50:55.364Z</time>
      </trkpt>
      <trkpt lat="44.20473" lon="0.59114">
        <ele>45.8</ele>
        <time>2026-02-08T13:51:09.364Z</time>
      </trkpt>
      <trkpt lat="44.20473" lon="0.59121">
        <ele>45.3</ele>
        <time>2026-02-08T13:51:13.364Z</time>
      </trkpt>
      <trkpt lat="44.20481" lon="0.59151">
        <ele>44.9</ele>
        <time>2026-02-08T13:51:33.364Z</time>
      </trkpt>
      <trkpt lat="44.2048" lon="0.59157">
        <ele>45</ele>
        <time>2026-02-08T13:51:37.364Z</time>
      </trkpt>
      <trkpt lat="44.20481" lon="0.59164">
        <ele>45.2</ele>
        <time>2026-02-08T13:51:41.364Z</time>
      </trkpt>
      <trkpt lat="44.20484" lon="0.59173">
        <ele>45.7</ele>
        <time>2026-02-08T13:51:49.364Z</time>
      </trkpt>
      <trkpt lat="44.20493" lon="0.59215">
        <ele>46.5</ele>
        <time>2026-02-08T13:52:21.364Z</time>
      </trkpt>
      <trkpt lat="44.205" lon="0.59227">
        <ele>46.8</ele>
        <time>2026-02-08T13:53:51.364Z</time>
      </trkpt>
      <trkpt lat="44.20507" lon="0.59252">
        <ele>45.8</ele>
        <time>2026-02-08T13:54:11.364Z</time>
      </trkpt>
      <trkpt lat="44.20513" lon="0.59278">
        <ele>45.5</ele>
        <time>2026-02-08T13:54:35.364Z</time>
      </trkpt>
      <trkpt lat="44.20519" lon="0.59286">
        <ele>45.5</ele>
        <time>2026-02-08T13:54:43.364Z</time>
      </trkpt>
      <trkpt lat="44.20521" lon="0.59291">
        <ele>45.6</ele>
        <time>2026-02-08T13:54:47.364Z</time>
      </trkpt>
      <trkpt lat="44.20522" lon="0.59298">
        <ele>45.8</ele>
        <time>2026-02-08T13:54:51.364Z</time>
      </trkpt>
      <trkpt lat="44.20527" lon="0.59315">
        <ele>46.3</ele>
        <time>2026-02-08T13:55:03.364Z</time>
      </trkpt>
      <trkpt lat="44.2053" lon="0.59334">
        <ele>46.7</ele>
        <time>2026-02-08T13:55:15.364Z</time>
      </trkpt>
      <trkpt lat="44.20534" lon="0.59345">
        <ele>46.3</ele>
        <time>2026-02-08T13:55:23.364Z</time>
      </trkpt>
      <trkpt lat="44.20536" lon="0.59356">
        <ele>46.1</ele>
        <time>2026-02-08T13:55:31.364Z</time>
      </trkpt>
      <trkpt lat="44.2054" lon="0.59372">
        <ele>45.5</ele>
        <time>2026-02-08T13:55:39.364Z</time>
      </trkpt>
      <trkpt lat="44.20544" lon="0.59383">
        <ele>44.9</ele>
        <time>2026-02-08T13:55:47.364Z</time>
      </trkpt>
      <trkpt lat="44.20546" lon="0.59393">
        <ele>44.8</ele>
        <time>2026-02-08T13:55:51.364Z</time>
      </trkpt>
      <trkpt lat="44.20548" lon="0.59397">
        <ele>44.8</ele>
        <time>2026-02-08T13:55:53.364Z</time>
      </trkpt>
      <trkpt lat="44.20548" lon="0.59401">
        <ele>44.9</ele>
        <time>2026-02-08T13:55:55.364Z</time>
      </trkpt>
      <trkpt lat="44.20551" lon="0.59408">
        <ele>44.9</ele>
        <time>2026-02-08T13:56:00.364Z</time>
      </trkpt>
      <trkpt lat="44.20551" lon="0.59414">
        <ele>45.1</ele>
        <time>2026-02-08T13:56:04.364Z</time>
      </trkpt>
      <trkpt lat="44.20557" lon="0.5944">
        <ele>47.3</ele>
        <time>2026-02-08T13:56:20.364Z</time>
      </trkpt>
      <trkpt lat="44.20562" lon="0.59452">
        <ele>46.9</ele>
        <time>2026-02-08T13:56:28.364Z</time>
      </trkpt>
      <trkpt lat="44.20574" lon="0.59507">
        <ele>45.5</ele>
        <time>2026-02-08T13:57:04.364Z</time>
      </trkpt>
      <trkpt lat="44.20575" lon="0.59518">
        <ele>45.7</ele>
        <time>2026-02-08T13:57:12.364Z</time>
      </trkpt>
      <trkpt lat="44.20579" lon="0.59534">
        <ele>46.2</ele>
        <time>2026-02-08T13:57:26.364Z</time>
      </trkpt>
      <trkpt lat="44.20579" lon="0.59534">
        <ele>46.2</ele>
        <time>2026-02-08T13:57:28.364Z</time>
      </trkpt>
      <trkpt lat="44.20586" lon="0.59574">
        <ele>46.8</ele>
        <time>2026-02-08T13:57:52.364Z</time>
      </trkpt>
      <trkpt lat="44.20591" lon="0.59599">
        <ele>46.7</ele>
        <time>2026-02-08T13:58:08.364Z</time>
      </trkpt>
      <trkpt lat="44.20598" lon="0.59618">
        <ele>46.7</ele>
        <time>2026-02-08T13:58:20.364Z</time>
      </trkpt>
      <trkpt lat="44.20599" lon="0.59626">
        <ele>46.9</ele>
        <time>2026-02-08T13:58:24.364Z</time>
      </trkpt>
      <trkpt lat="44.20604" lon="0.59673">
        <ele>49</ele>
        <time>2026-02-08T13:59:32.364Z</time>
      </trkpt>
      <trkpt lat="44.2061" lon="0.59698">
        <ele>49</ele>
        <time>2026-02-08T14:03:16.364Z</time>
      </trkpt>
      <trkpt lat="44.20611" lon="0.59712">
        <ele>49</ele>
        <time>2026-02-08T14:03:24.364Z</time>
      </trkpt>
      <trkpt lat="44.20614" lon="0.59723">
        <ele>48.6</ele>
        <time>2026-02-08T14:03:32.364Z</time>
      </trkpt>
      <trkpt lat="44.20618" lon="0.59736">
        <ele>48.2</ele>
        <time>2026-02-08T14:03:40.364Z</time>
      </trkpt>
      <trkpt lat="44.20619" lon="0.59744">
        <ele>48.3</ele>
        <time>2026-02-08T14:03:44.364Z</time>
      </trkpt>
      <trkpt lat="44.20622" lon="0.59762">
        <ele>48.4</ele>
        <time>2026-02-08T14:03:58.364Z</time>
      </trkpt>
      <trkpt lat="44.20625" lon="0.59775">
        <ele>48.4</ele>
        <time>2026-02-08T14:04:06.364Z</time>
      </trkpt>
      <trkpt lat="44.20628" lon="0.59789">
        <ele>48.6</ele>
        <time>2026-02-08T14:04:14.364Z</time>
      </trkpt>
      <trkpt lat="44.20632" lon="0.59801">
        <ele>48.9</ele>
        <time>2026-02-08T14:04:22.364Z</time>
      </trkpt>
      <trkpt lat="44.20635" lon="0.5981">
        <ele>49</ele>
        <time>2026-02-08T14:04:34.364Z</time>
      </trkpt>
      <trkpt lat="44.20639" lon="0.59822">
        <ele>49</ele>
        <time>2026-02-08T14:04:42.364Z</time>
      </trkpt>
      <trkpt lat="44.20641" lon="0.59834">
        <ele>48.7</ele>
        <time>2026-02-08T14:04:50.364Z</time>
      </trkpt>
      <trkpt lat="44.20646" lon="0.59849">
        <ele>48.1</ele>
        <time>2026-02-08T14:05:00.364Z</time>
      </trkpt>
      <trkpt lat="44.20647" lon="0.59854">
        <ele>48.1</ele>
        <time>2026-02-08T14:05:02.364Z</time>
      </trkpt>
      <trkpt lat="44.2065" lon="0.59861">
        <ele>47.8</ele>
        <time>2026-02-08T14:05:06.364Z</time>
      </trkpt>
      <trkpt lat="44.20653" lon="0.59872">
        <ele>47.9</ele>
        <time>2026-02-08T14:05:14.364Z</time>
      </trkpt>
      <trkpt lat="44.20656" lon="0.59884">
        <ele>48.2</ele>
        <time>2026-02-08T14:05:22.364Z</time>
      </trkpt>
      <trkpt lat="44.20657" lon="0.59889">
        <ele>48.4</ele>
        <time>2026-02-08T14:05:26.364Z</time>
      </trkpt>
      <trkpt lat="44.20661" lon="0.59902">
        <ele>48.6</ele>
        <time>2026-02-08T14:05:34.364Z</time>
      </trkpt>
      <trkpt lat="44.20662" lon="0.59911">
        <ele>48.8</ele>
        <time>2026-02-08T14:05:40.364Z</time>
      </trkpt>
      <trkpt lat="44.20667" lon="0.59933">
        <ele>48.9</ele>
        <time>2026-02-08T14:05:58.364Z</time>
      </trkpt>
      <trkpt lat="44.20668" lon="0.59943">
        <ele>48.8</ele>
        <time>2026-02-08T14:06:02.364Z</time>
      </trkpt>
      <trkpt lat="44.2067" lon="0.59948">
        <ele>48.6</ele>
        <time>2026-02-08T14:06:06.364Z</time>
      </trkpt>
      <trkpt lat="44.20673" lon="0.5996">
        <ele>48.5</ele>
        <time>2026-02-08T14:06:14.364Z</time>
      </trkpt>
      <trkpt lat="44.20676" lon="0.59971">
        <ele>48.3</ele>
        <time>2026-02-08T14:06:22.364Z</time>
      </trkpt>
      <trkpt lat="44.20682" lon="0.59996">
        <ele>48.4</ele>
        <time>2026-02-08T14:06:40.364Z</time>
      </trkpt>
      <trkpt lat="44.20686" lon="0.60008">
        <ele>48.7</ele>
        <time>2026-02-08T14:06:48.364Z</time>
      </trkpt>
      <trkpt lat="44.20688" lon="0.60031">
        <ele>49.9</ele>
        <time>2026-02-08T14:07:04.364Z</time>
      </trkpt>
      <trkpt lat="44.20692" lon="0.60046">
        <ele>51.1</ele>
        <time>2026-02-08T14:07:12.364Z</time>
      </trkpt>
      <trkpt lat="44.20693" lon="0.60056">
        <ele>51.8</ele>
        <time>2026-02-08T14:07:20.364Z</time>
      </trkpt>
      <trkpt lat="44.20691" lon="0.60068">
        <ele>51.8</ele>
        <time>2026-02-08T14:07:30.364Z</time>
      </trkpt>
      <trkpt lat="44.20694" lon="0.60095">
        <ele>52</ele>
        <time>2026-02-08T14:07:46.364Z</time>
      </trkpt>
      <trkpt lat="44.20699" lon="0.60119">
        <ele>51.5</ele>
        <time>2026-02-08T14:08:02.364Z</time>
      </trkpt>
      <trkpt lat="44.20703" lon="0.60128">
        <ele>51.1</ele>
        <time>2026-02-08T14:08:10.364Z</time>
      </trkpt>
      <trkpt lat="44.20709" lon="0.60138">
        <ele>50.5</ele>
        <time>2026-02-08T14:08:18.364Z</time>
      </trkpt>
      <trkpt lat="44.20716" lon="0.60161">
        <ele>51.5</ele>
        <time>2026-02-08T14:08:34.364Z</time>
      </trkpt>
      <trkpt lat="44.20719" lon="0.60175">
        <ele>52</ele>
        <time>2026-02-08T14:08:42.364Z</time>
      </trkpt>
      <trkpt lat="44.20725" lon="0.60194">
        <ele>51.4</ele>
        <time>2026-02-08T14:08:54.364Z</time>
      </trkpt>
      <trkpt lat="44.20727" lon="0.60206">
        <ele>51</ele>
        <time>2026-02-08T14:09:02.364Z</time>
      </trkpt>
      <trkpt lat="44.20725" lon="0.60219">
        <ele>51.2</ele>
        <time>2026-02-08T14:09:10.364Z</time>
      </trkpt>
      <trkpt lat="44.20725" lon="0.60246">
        <ele>44.8</ele>
        <time>2026-02-08T14:09:26.364Z</time>
      </trkpt>
      <trkpt lat="44.20724" lon="0.60258">
        <ele>43.3</ele>
        <time>2026-02-08T14:09:34.364Z</time>
      </trkpt>
      <trkpt lat="44.20728" lon="0.60284">
        <ele>41.7</ele>
        <time>2026-02-08T14:09:50.364Z</time>
      </trkpt>
      <trkpt lat="44.2075" lon="0.60389">
        <ele>42</ele>
        <time>2026-02-08T14:10:54.364Z</time>
      </trkpt>
      <trkpt lat="44.20803" lon="0.60614">
        <ele>36</ele>
        <time>2026-02-08T14:13:18.364Z</time>
      </trkpt>
      <trkpt lat="44.2081" lon="0.6064">
        <ele>36</ele>
        <time>2026-02-08T14:13:34.364Z</time>
      </trkpt>
      <trkpt lat="44.20812" lon="0.60652">
        <ele>36.5</ele>
        <time>2026-02-08T14:13:42.364Z</time>
      </trkpt>
      <trkpt lat="44.20828" lon="0.60722">
        <ele>41.8</ele>
        <time>2026-02-08T14:14:30.364Z</time>
      </trkpt>
      <trkpt lat="44.20835" lon="0.60747">
        <ele>42</ele>
        <time>2026-02-08T14:14:46.364Z</time>
      </trkpt>
      <trkpt lat="44.20845" lon="0.60788">
        <ele>41.8</ele>
        <time>2026-02-08T14:15:14.364Z</time>
      </trkpt>
      <trkpt lat="44.20849" lon="0.60812">
        <ele>41.2</ele>
        <time>2026-02-08T14:15:30.364Z</time>
      </trkpt>
      <trkpt lat="44.20862" lon="0.60866">
        <ele>42.1</ele>
        <time>2026-02-08T14:16:06.364Z</time>
      </trkpt>
      <trkpt lat="44.20864" lon="0.60877">
        <ele>42.3</ele>
        <time>2026-02-08T14:16:14.364Z</time>
      </trkpt>
      <trkpt lat="44.20872" lon="0.60903">
        <ele>45.6</ele>
        <time>2026-02-08T14:16:50.364Z</time>
      </trkpt>
      <trkpt lat="44.2088" lon="0.60925">
        <ele>49.4</ele>
        <time>2026-02-08T14:17:16.364Z</time>
      </trkpt>
      <trkpt lat="44.20878" lon="0.60917">
        <ele>48.2</ele>
        <time>2026-02-08T14:19:54.364Z</time>
      </trkpt>
      <trkpt lat="44.20884" lon="0.60938">
        <ele>51.3</ele>
        <time>2026-02-08T14:20:30.364Z</time>
      </trkpt>
      <trkpt lat="44.20887" lon="0.60952">
        <ele>52</ele>
        <time>2026-02-08T14:20:52.364Z</time>
      </trkpt>
      <trkpt lat="44.20892" lon="0.60968">
        <ele>51.2</ele>
        <time>2026-02-08T14:21:06.364Z</time>
      </trkpt>
      <trkpt lat="44.20894" lon="0.60972">
        <ele>50.5</ele>
        <time>2026-02-08T14:21:10.364Z</time>
      </trkpt>
      <trkpt lat="44.20896" lon="0.60973">
        <ele>50</ele>
        <time>2026-02-08T14:21:12.364Z</time>
      </trkpt>
      <trkpt lat="44.20901" lon="0.60985">
        <ele>48.7</ele>
        <time>2026-02-08T14:21:20.364Z</time>
      </trkpt>
      <trkpt lat="44.20904" lon="0.60999">
        <ele>47.8</ele>
        <time>2026-02-08T14:21:28.364Z</time>
      </trkpt>
      <trkpt lat="44.20905" lon="0.61014">
        <ele>49</ele>
        <time>2026-02-08T14:21:36.364Z</time>
      </trkpt>
      <trkpt lat="44.20908" lon="0.61028">
        <ele>50.6</ele>
        <time>2026-02-08T14:21:44.364Z</time>
      </trkpt>
      <trkpt lat="44.20913" lon="0.6104">
        <ele>51</ele>
        <time>2026-02-08T14:21:52.364Z</time>
      </trkpt>
      <trkpt lat="44.20914" lon="0.61047">
        <ele>51.4</ele>
        <time>2026-02-08T14:21:56.364Z</time>
      </trkpt>
      <trkpt lat="44.20922" lon="0.61072">
        <ele>51.6</ele>
        <time>2026-02-08T14:22:12.364Z</time>
      </trkpt>
      <trkpt lat="44.20927" lon="0.61091">
        <ele>52.5</ele>
        <time>2026-02-08T14:22:24.364Z</time>
      </trkpt>
      <trkpt lat="44.20931" lon="0.61101">
        <ele>53.7</ele>
        <time>2026-02-08T14:22:32.364Z</time>
      </trkpt>
      <trkpt lat="44.20938" lon="0.61109">
        <ele>55.6</ele>
        <time>2026-02-08T14:22:40.364Z</time>
      </trkpt>
      <trkpt lat="44.20949" lon="0.61149">
        <ele>57.8</ele>
        <time>2026-02-08T14:24:08.364Z</time>
      </trkpt>
      <trkpt lat="44.20952" lon="0.61154">
        <ele>58.7</ele>
        <time>2026-02-08T14:24:12.364Z</time>
      </trkpt>
      <trkpt lat="44.20955" lon="0.61164">
        <ele>59.9</ele>
        <time>2026-02-08T14:24:20.364Z</time>
      </trkpt>
      <trkpt lat="44.20956" lon="0.6117">
        <ele>60.3</ele>
        <time>2026-02-08T14:24:24.364Z</time>
      </trkpt>
      <trkpt lat="44.20955" lon="0.61175">
        <ele>60.1</ele>
        <time>2026-02-08T14:24:28.364Z</time>
      </trkpt>
      <trkpt lat="44.20956" lon="0.61182">
        <ele>60.6</ele>
        <time>2026-02-08T14:24:32.364Z</time>
      </trkpt>
      <trkpt lat="44.20958" lon="0.61184">
        <ele>61.4</ele>
        <time>2026-02-08T14:24:34.364Z</time>
      </trkpt>
      <trkpt lat="44.20958" lon="0.61199">
        <ele>61.8</ele>
        <time>2026-02-08T14:24:42.364Z</time>
      </trkpt>
      <trkpt lat="44.20956" lon="0.61204">
        <ele>60.8</ele>
        <time>2026-02-08T14:24:46.364Z</time>
      </trkpt>
      <trkpt lat="44.20954" lon="0.61217">
        <ele>60</ele>
        <time>2026-02-08T14:24:54.364Z</time>
      </trkpt>
      <trkpt lat="44.20954" lon="0.6122">
        <ele>60.5</ele>
        <time>2026-02-08T14:24:56.364Z</time>
      </trkpt>
      <trkpt lat="44.20947" lon="0.61281">
        <ele>64.8</ele>
        <time>2026-02-08T14:25:36.364Z</time>
      </trkpt>
      <trkpt lat="44.20944" lon="0.61301">
        <ele>67</ele>
        <time>2026-02-08T14:25:50.364Z</time>
      </trkpt>
      <trkpt lat="44.20942" lon="0.61306">
        <ele>66.3</ele>
        <time>2026-02-08T14:25:54.364Z</time>
      </trkpt>
      <trkpt lat="44.20942" lon="0.61312">
        <ele>66.9</ele>
        <time>2026-02-08T14:25:58.364Z</time>
      </trkpt>
      <trkpt lat="44.20937" lon="0.61338">
        <ele>66.2</ele>
        <time>2026-02-08T14:26:32.364Z</time>
      </trkpt>
      <trkpt lat="44.20938" lon="0.61342">
        <ele>66.9</ele>
        <time>2026-02-08T14:26:34.364Z</time>
      </trkpt>
      <trkpt lat="44.20938" lon="0.61348">
        <ele>66.8</ele>
        <time>2026-02-08T14:26:38.364Z</time>
      </trkpt>
      <trkpt lat="44.20941" lon="0.61386">
        <ele>68.5</ele>
        <time>2026-02-08T14:27:03.364Z</time>
      </trkpt>
      <trkpt lat="44.2094" lon="0.61408">
        <ele>70.5</ele>
        <time>2026-02-08T14:27:19.364Z</time>
      </trkpt>
      <trkpt lat="44.20941" lon="0.61421">
        <ele>72.4</ele>
        <time>2026-02-08T14:27:27.364Z</time>
      </trkpt>
      <trkpt lat="44.20937" lon="0.61449">
        <ele>72.7</ele>
        <time>2026-02-08T14:27:43.364Z</time>
      </trkpt>
      <trkpt lat="44.20935" lon="0.6146">
        <ele>72.3</ele>
        <time>2026-02-08T14:27:49.364Z</time>
      </trkpt>
      <trkpt lat="44.2093" lon="0.61491">
        <ele>72.9</ele>
        <time>2026-02-08T14:28:13.364Z</time>
      </trkpt>
      <trkpt lat="44.20928" lon="0.61509">
        <ele>74.1</ele>
        <time>2026-02-08T14:28:25.364Z</time>
      </trkpt>
      <trkpt lat="44.2093" lon="0.61521">
        <ele>75</ele>
        <time>2026-02-08T14:28:31.364Z</time>
      </trkpt>
      <trkpt lat="44.20931" lon="0.61527">
        <ele>75.7</ele>
        <time>2026-02-08T14:28:35.364Z</time>
      </trkpt>
      <trkpt lat="44.20931" lon="0.61534">
        <ele>75.4</ele>
        <time>2026-02-08T14:28:39.364Z</time>
      </trkpt>
      <trkpt lat="44.20935" lon="0.61549">
        <ele>76.2</ele>
        <time>2026-02-08T14:28:49.364Z</time>
      </trkpt>
      <trkpt lat="44.20934" lon="0.61556">
        <ele>75.5</ele>
        <time>2026-02-08T14:28:53.364Z</time>
      </trkpt>
      <trkpt lat="44.20936" lon="0.61574">
        <ele>75.8</ele>
        <time>2026-02-08T14:29:05.364Z</time>
      </trkpt>
      <trkpt lat="44.2094" lon="0.61585">
        <ele>77.4</ele>
        <time>2026-02-08T14:29:13.364Z</time>
      </trkpt>
      <trkpt lat="44.2094" lon="0.61591">
        <ele>76.7</ele>
        <time>2026-02-08T14:29:17.364Z</time>
      </trkpt>
      <trkpt lat="44.20941" lon="0.61596">
        <ele>76.8</ele>
        <time>2026-02-08T14:29:21.364Z</time>
      </trkpt>
      <trkpt lat="44.20941" lon="0.61602">
        <ele>76.1</ele>
        <time>2026-02-08T14:29:25.364Z</time>
      </trkpt>
      <trkpt lat="44.20956" lon="0.61659">
        <ele>78.9</ele>
        <time>2026-02-08T14:30:05.364Z</time>
      </trkpt>
      <trkpt lat="44.20958" lon="0.61671">
        <ele>78.3</ele>
        <time>2026-02-08T14:30:15.364Z</time>
      </trkpt>
      <trkpt lat="44.20961" lon="0.61684">
        <ele>78.8</ele>
        <time>2026-02-08T14:30:23.364Z</time>
      </trkpt>
      <trkpt lat="44.20962" lon="0.61691">
        <ele>78.3</ele>
        <time>2026-02-08T14:30:28.364Z</time>
      </trkpt>
      <trkpt lat="44.20963" lon="0.61693">
        <ele>79</ele>
        <time>2026-02-08T14:30:30.364Z</time>
      </trkpt>
      <trkpt lat="44.20967" lon="0.61704">
        <ele>79.2</ele>
        <time>2026-02-08T14:31:02.364Z</time>
      </trkpt>
      <trkpt lat="44.2097" lon="0.61709">
        <ele>79.6</ele>
        <time>2026-02-08T14:34:40.364Z</time>
      </trkpt>
      <trkpt lat="44.2098" lon="0.61741">
        <ele>79.1</ele>
        <time>2026-02-08T14:35:04.364Z</time>
      </trkpt>
      <trkpt lat="44.20984" lon="0.61753">
        <ele>79.7</ele>
        <time>2026-02-08T14:35:12.364Z</time>
      </trkpt>
      <trkpt lat="44.20987" lon="0.61765">
        <ele>79.4</ele>
        <time>2026-02-08T14:35:20.364Z</time>
      </trkpt>
      <trkpt lat="44.20987" lon="0.6177">
        <ele>79</ele>
        <time>2026-02-08T14:35:24.364Z</time>
      </trkpt>
      <trkpt lat="44.2099" lon="0.6178">
        <ele>78.8</ele>
        <time>2026-02-08T14:35:32.364Z</time>
      </trkpt>
      <trkpt lat="44.20989" lon="0.61792">
        <ele>77.7</ele>
        <time>2026-02-08T14:35:48.364Z</time>
      </trkpt>
      <trkpt lat="44.20986" lon="0.61792">
        <ele>76.8</ele>
        <time>2026-02-08T14:36:24.364Z</time>
      </trkpt>
      <trkpt lat="44.20987" lon="0.61792">
        <ele>76.8</ele>
        <time>2026-02-08T14:36:52.364Z</time>
      </trkpt>
      <trkpt lat="44.20988" lon="0.61805">
        <ele>76.3</ele>
        <time>2026-02-08T14:38:04.364Z</time>
      </trkpt>
      <trkpt lat="44.20987" lon="0.61805">
        <ele>75.9</ele>
        <time>2026-02-08T14:38:12.364Z</time>
      </trkpt>
      <trkpt lat="44.20989" lon="0.61806">
        <ele>76.3</ele>
        <time>2026-02-08T14:38:20.364Z</time>
      </trkpt>
      <trkpt lat="44.20993" lon="0.61815">
        <ele>77.6</ele>
        <time>2026-02-08T14:38:28.364Z</time>
      </trkpt>
      <trkpt lat="44.20997" lon="0.6182">
        <ele>78.8</ele>
        <time>2026-02-08T14:38:32.364Z</time>
      </trkpt>
      <trkpt lat="44.21004" lon="0.61824">
        <ele>81</ele>
        <time>2026-02-08T14:38:38.364Z</time>
      </trkpt>
      <trkpt lat="44.21017" lon="0.61841">
        <ele>83</ele>
        <time>2026-02-08T14:38:54.364Z</time>
      </trkpt>
      <trkpt lat="44.21021" lon="0.61844">
        <ele>83.7</ele>
        <time>2026-02-08T14:38:58.364Z</time>
      </trkpt>
      <trkpt lat="44.21024" lon="0.61845">
        <ele>84.3</ele>
        <time>2026-02-08T14:39:00.364Z</time>
      </trkpt>
      <trkpt lat="44.21027" lon="0.61849">
        <ele>84.8</ele>
        <time>2026-02-08T14:39:06.364Z</time>
      </trkpt>
      <trkpt lat="44.21029" lon="0.6185">
        <ele>85.3</ele>
        <time>2026-02-08T14:39:08.364Z</time>
      </trkpt>
      <trkpt lat="44.21032" lon="0.61854">
        <ele>85.8</ele>
        <time>2026-02-08T14:39:12.364Z</time>
      </trkpt>
      <trkpt lat="44.21036" lon="0.61856">
        <ele>87.3</ele>
        <time>2026-02-08T14:39:16.364Z</time>
      </trkpt>
      <trkpt lat="44.21053" lon="0.61874">
        <ele>90.7</ele>
        <time>2026-02-08T14:39:36.364Z</time>
      </trkpt>
      <trkpt lat="44.21056" lon="0.61876">
        <ele>91.6</ele>
        <time>2026-02-08T14:39:40.364Z</time>
      </trkpt>
      <trkpt lat="44.21067" lon="0.61888">
        <ele>93.1</ele>
        <time>2026-02-08T14:39:56.364Z</time>
      </trkpt>
      <trkpt lat="44.2107" lon="0.61894">
        <ele>93.3</ele>
        <time>2026-02-08T14:40:02.364Z</time>
      </trkpt>
      <trkpt lat="44.21073" lon="0.61898">
        <ele>94</ele>
        <time>2026-02-08T14:40:06.364Z</time>
      </trkpt>
      <trkpt lat="44.21079" lon="0.6191">
        <ele>94.1</ele>
        <time>2026-02-08T14:40:14.364Z</time>
      </trkpt>
      <trkpt lat="44.21086" lon="0.61944">
        <ele>95.8</ele>
        <time>2026-02-08T14:40:38.364Z</time>
      </trkpt>
      <trkpt lat="44.21089" lon="0.61949">
        <ele>96.6</ele>
        <time>2026-02-08T14:40:42.364Z</time>
      </trkpt>
      <trkpt lat="44.21088" lon="0.61954">
        <ele>96.5</ele>
        <time>2026-02-08T14:40:46.364Z</time>
      </trkpt>
      <trkpt lat="44.21093" lon="0.61963">
        <ele>97.7</ele>
        <time>2026-02-08T14:40:54.364Z</time>
      </trkpt>
      <trkpt lat="44.21097" lon="0.61974">
        <ele>98.4</ele>
        <time>2026-02-08T14:41:02.364Z</time>
      </trkpt>
      <trkpt lat="44.21099" lon="0.61984">
        <ele>98.8</ele>
        <time>2026-02-08T14:41:26.364Z</time>
      </trkpt>
      <trkpt lat="44.21103" lon="0.61985">
        <ele>99.8</ele>
        <time>2026-02-08T14:41:34.364Z</time>
      </trkpt>
      <trkpt lat="44.21107" lon="0.61994">
        <ele>100.5</ele>
        <time>2026-02-08T14:41:46.364Z</time>
      </trkpt>
      <trkpt lat="44.21109" lon="0.62005">
        <ele>100.4</ele>
        <time>2026-02-08T14:41:54.364Z</time>
      </trkpt>
      <trkpt lat="44.21112" lon="0.62014">
        <ele>100.6</ele>
        <time>2026-02-08T14:42:00.364Z</time>
      </trkpt>
      <trkpt lat="44.21113" lon="0.62027">
        <ele>100.6</ele>
        <time>2026-02-08T14:42:08.364Z</time>
      </trkpt>
      <trkpt lat="44.21113" lon="0.62036">
        <ele>100.5</ele>
        <time>2026-02-08T14:42:14.364Z</time>
      </trkpt>
      <trkpt lat="44.21115" lon="0.6205">
        <ele>100.9</ele>
        <time>2026-02-08T14:42:22.364Z</time>
      </trkpt>
      <trkpt lat="44.21116" lon="0.62078">
        <ele>100.6</ele>
        <time>2026-02-08T14:42:38.364Z</time>
      </trkpt>
      <trkpt lat="44.21116" lon="0.62084">
        <ele>100.3</ele>
        <time>2026-02-08T14:42:42.364Z</time>
      </trkpt>
      <trkpt lat="44.2112" lon="0.62113">
        <ele>101.2</ele>
        <time>2026-02-08T14:42:58.364Z</time>
      </trkpt>
      <trkpt lat="44.21119" lon="0.6212">
        <ele>101</ele>
        <time>2026-02-08T14:43:02.364Z</time>
      </trkpt>
      <trkpt lat="44.2112" lon="0.62126">
        <ele>101</ele>
        <time>2026-02-08T14:43:06.364Z</time>
      </trkpt>
      <trkpt lat="44.21118" lon="0.62144">
        <ele>100.6</ele>
        <time>2026-02-08T14:43:22.364Z</time>
      </trkpt>
      <trkpt lat="44.21119" lon="0.62152">
        <ele>101.1</ele>
        <time>2026-02-08T14:43:28.364Z</time>
      </trkpt>
      <trkpt lat="44.21118" lon="0.62158">
        <ele>101</ele>
        <time>2026-02-08T14:43:32.364Z</time>
      </trkpt>
      <trkpt lat="44.2112" lon="0.62169">
        <ele>101.7</ele>
        <time>2026-02-08T14:43:38.364Z</time>
      </trkpt>
      <trkpt lat="44.2112" lon="0.62176">
        <ele>101.9</ele>
        <time>2026-02-08T14:43:42.364Z</time>
      </trkpt>
      <trkpt lat="44.21121" lon="0.6218">
        <ele>102.2</ele>
        <time>2026-02-08T14:43:44.364Z</time>
      </trkpt>
      <trkpt lat="44.21117" lon="0.62207">
        <ele>102.3</ele>
        <time>2026-02-08T14:44:00.364Z</time>
      </trkpt>
      <trkpt lat="44.21115" lon="0.62216">
        <ele>101.9</ele>
        <time>2026-02-08T14:44:06.364Z</time>
      </trkpt>
      <trkpt lat="44.21115" lon="0.62222">
        <ele>101.9</ele>
        <time>2026-02-08T14:44:10.364Z</time>
      </trkpt>
      <trkpt lat="44.21112" lon="0.62231">
        <ele>101.9</ele>
        <time>2026-02-08T14:44:16.364Z</time>
      </trkpt>
      <trkpt lat="44.21114" lon="0.62242">
        <ele>103.1</ele>
        <time>2026-02-08T14:44:22.364Z</time>
      </trkpt>
      <trkpt lat="44.21112" lon="0.62252">
        <ele>103.4</ele>
        <time>2026-02-08T14:44:30.364Z</time>
      </trkpt>
      <trkpt lat="44.2111" lon="0.62258">
        <ele>103.3</ele>
        <time>2026-02-08T14:44:34.364Z</time>
      </trkpt>
      <trkpt lat="44.21105" lon="0.62278">
        <ele>104</ele>
        <time>2026-02-08T14:44:46.364Z</time>
      </trkpt>
      <trkpt lat="44.21105" lon="0.62292">
        <ele>104.3</ele>
        <time>2026-02-08T14:44:54.364Z</time>
      </trkpt>
      <trkpt lat="44.21105" lon="0.62298">
        <ele>104.7</ele>
        <time>2026-02-08T14:44:58.364Z</time>
      </trkpt>
      <trkpt lat="44.21109" lon="0.62308">
        <ele>105.5</ele>
        <time>2026-02-08T14:45:06.364Z</time>
      </trkpt>
      <trkpt lat="44.2112" lon="0.62321">
        <ele>107.7</ele>
        <time>2026-02-08T14:45:22.364Z</time>
      </trkpt>
      <trkpt lat="44.21126" lon="0.62326">
        <ele>109.4</ele>
        <time>2026-02-08T14:45:30.364Z</time>
      </trkpt>
      <trkpt lat="44.21133" lon="0.62346">
        <ele>111.7</ele>
        <time>2026-02-08T14:45:46.364Z</time>
      </trkpt>
      <trkpt lat="44.21138" lon="0.62361">
        <ele>112.7</ele>
        <time>2026-02-08T14:45:57.364Z</time>
      </trkpt>
      <trkpt lat="44.21142" lon="0.62394">
        <ele>112.5</ele>
        <time>2026-02-08T14:46:21.364Z</time>
      </trkpt>
      <trkpt lat="44.21144" lon="0.62413">
        <ele>111.1</ele>
        <time>2026-02-08T14:46:37.364Z</time>
      </trkpt>
      <trkpt lat="44.21148" lon="0.62434">
        <ele>109.5</ele>
        <time>2026-02-08T14:46:53.364Z</time>
      </trkpt>
      <trkpt lat="44.21153" lon="0.62451">
        <ele>109.3</ele>
        <time>2026-02-08T14:47:05.364Z</time>
      </trkpt>
      <trkpt lat="44.21154" lon="0.62462">
        <ele>108.8</ele>
        <time>2026-02-08T14:47:13.364Z</time>
      </trkpt>
      <trkpt lat="44.21156" lon="0.62472">
        <ele>109</ele>
        <time>2026-02-08T14:47:21.364Z</time>
      </trkpt>
      <trkpt lat="44.21156" lon="0.6248">
        <ele>107.4</ele>
        <time>2026-02-08T14:47:29.364Z</time>
      </trkpt>
      <trkpt lat="44.21159" lon="0.62488">
        <ele>106.5</ele>
        <time>2026-02-08T14:50:17.364Z</time>
      </trkpt>
      <trkpt lat="44.21162" lon="0.62506">
        <ele>103.5</ele>
        <time>2026-02-08T14:50:41.364Z</time>
      </trkpt>
      <trkpt lat="44.21162" lon="0.62511">
        <ele>102</ele>
        <time>2026-02-08T14:50:57.364Z</time>
      </trkpt>
      <trkpt lat="44.21158" lon="0.62513">
        <ele>100.7</ele>
        <time>2026-02-08T14:51:05.364Z</time>
      </trkpt>
      <trkpt lat="44.21155" lon="0.62518">
        <ele>98.8</ele>
        <time>2026-02-08T14:51:11.364Z</time>
      </trkpt>
      <trkpt lat="44.21154" lon="0.62519">
        <ele>98.4</ele>
        <time>2026-02-08T14:51:13.364Z</time>
      </trkpt>
      <trkpt lat="44.2115" lon="0.62524">
        <ele>96.5</ele>
        <time>2026-02-08T14:51:45.364Z</time>
      </trkpt>
      <trkpt lat="44.21149" lon="0.62524">
        <ele>96.1</ele>
        <time>2026-02-08T14:52:01.364Z</time>
      </trkpt>
      <trkpt lat="44.21135" lon="0.62541">
        <ele>90.8</ele>
        <time>2026-02-08T14:52:31.364Z</time>
      </trkpt>
      <trkpt lat="44.2113" lon="0.62547">
        <ele>89</ele>
        <time>2026-02-08T14:52:39.364Z</time>
      </trkpt>
      <trkpt lat="44.21126" lon="0.62553">
        <ele>87.5</ele>
        <time>2026-02-08T14:52:45.364Z</time>
      </trkpt>
      <trkpt lat="44.21111" lon="0.62569">
        <ele>82.4</ele>
        <time>2026-02-08T14:53:09.364Z</time>
      </trkpt>
      <trkpt lat="44.21106" lon="0.62575">
        <ele>80.5</ele>
        <time>2026-02-08T14:53:17.364Z</time>
      </trkpt>
      <trkpt lat="44.21097" lon="0.62585">
        <ele>77.1</ele>
        <time>2026-02-08T14:53:33.364Z</time>
      </trkpt>
      <trkpt lat="44.21088" lon="0.62593">
        <ele>73.9</ele>
        <time>2026-02-08T14:53:45.364Z</time>
      </trkpt>
      <trkpt lat="44.21077" lon="0.62607">
        <ele>69.9</ele>
        <time>2026-02-08T14:54:01.364Z</time>
      </trkpt>
      <trkpt lat="44.21072" lon="0.6261">
        <ele>68.4</ele>
        <time>2026-02-08T14:54:09.364Z</time>
      </trkpt>
      <trkpt lat="44.21069" lon="0.62608">
        <ele>67.8</ele>
        <time>2026-02-08T14:55:45.364Z</time>
      </trkpt>
      <trkpt lat="44.21069" lon="0.62607">
        <ele>68</ele>
        <time>2026-02-08T14:56:01.364Z</time>
      </trkpt>
      <trkpt lat="44.2106" lon="0.62593">
        <ele>68.7</ele>
        <time>2026-02-08T14:56:25.364Z</time>
      </trkpt>
      <trkpt lat="44.21045" lon="0.62557">
        <ele>68.7</ele>
        <time>2026-02-08T14:56:51.364Z</time>
      </trkpt>
      <trkpt lat="44.21042" lon="0.62552">
        <ele>68.3</ele>
        <time>2026-02-08T14:56:53.364Z</time>
      </trkpt>
      <trkpt lat="44.21039" lon="0.62514">
        <ele>70.3</ele>
        <time>2026-02-08T14:57:17.364Z</time>
      </trkpt>
      <trkpt lat="44.21036" lon="0.62501">
        <ele>70.6</ele>
        <time>2026-02-08T14:57:25.364Z</time>
      </trkpt>
      <trkpt lat="44.21036" lon="0.62492">
        <ele>71.9</ele>
        <time>2026-02-08T14:57:31.364Z</time>
      </trkpt>
      <trkpt lat="44.21034" lon="0.62475">
        <ele>74.2</ele>
        <time>2026-02-08T14:57:45.364Z</time>
      </trkpt>
      <trkpt lat="44.21033" lon="0.62474">
        <ele>73.9</ele>
        <time>2026-02-08T14:57:47.364Z</time>
      </trkpt>
      <trkpt lat="44.21029" lon="0.62458">
        <ele>74.3</ele>
        <time>2026-02-08T14:57:57.364Z</time>
      </trkpt>
      <trkpt lat="44.21026" lon="0.62453">
        <ele>73.8</ele>
        <time>2026-02-08T14:57:59.364Z</time>
      </trkpt>
      <trkpt lat="44.21018" lon="0.6241">
        <ele>74.4</ele>
        <time>2026-02-08T14:58:27.364Z</time>
      </trkpt>
      <trkpt lat="44.21015" lon="0.62399">
        <ele>74</ele>
        <time>2026-02-08T14:58:35.364Z</time>
      </trkpt>
      <trkpt lat="44.2101" lon="0.62387">
        <ele>73.2</ele>
        <time>2026-02-08T14:58:43.364Z</time>
      </trkpt>
      <trkpt lat="44.21003" lon="0.62364">
        <ele>72.6</ele>
        <time>2026-02-08T14:58:59.364Z</time>
      </trkpt>
      <trkpt lat="44.21001" lon="0.62354">
        <ele>72.8</ele>
        <time>2026-02-08T14:59:05.364Z</time>
      </trkpt>
      <trkpt lat="44.20993" lon="0.62326">
        <ele>70.9</ele>
        <time>2026-02-08T14:59:25.364Z</time>
      </trkpt>
      <trkpt lat="44.2099" lon="0.623">
        <ele>69.5</ele>
        <time>2026-02-08T14:59:41.364Z</time>
      </trkpt>
      <trkpt lat="44.20984" lon="0.62276">
        <ele>67.2</ele>
        <time>2026-02-08T14:59:57.364Z</time>
      </trkpt>
      <trkpt lat="44.20982" lon="0.62271">
        <ele>66.5</ele>
        <time>2026-02-08T15:00:01.364Z</time>
      </trkpt>
      <trkpt lat="44.20975" lon="0.62248">
        <ele>65.1</ele>
        <time>2026-02-08T15:00:17.364Z</time>
      </trkpt>
      <trkpt lat="44.20975" lon="0.62245">
        <ele>64.9</ele>
        <time>2026-02-08T15:00:21.364Z</time>
      </trkpt>
      <trkpt lat="44.20972" lon="0.62238">
        <ele>63.6</ele>
        <time>2026-02-08T15:00:27.364Z</time>
      </trkpt>
      <trkpt lat="44.20971" lon="0.62237">
        <ele>63.3</ele>
        <time>2026-02-08T15:00:28.364Z</time>
      </trkpt>
      <trkpt lat="44.20969" lon="0.6223">
        <ele>62.7</ele>
        <time>2026-02-08T15:00:32.364Z</time>
      </trkpt>
      <trkpt lat="44.20958" lon="0.62211">
        <ele>60.7</ele>
        <time>2026-02-08T15:00:48.364Z</time>
      </trkpt>
      <trkpt lat="44.20957" lon="0.62206">
        <ele>60.5</ele>
        <time>2026-02-08T15:00:52.364Z</time>
      </trkpt>
      <trkpt lat="44.20939" lon="0.62172">
        <ele>57.6</ele>
        <time>2026-02-08T15:01:24.364Z</time>
      </trkpt>
      <trkpt lat="44.20935" lon="0.62165">
        <ele>56.6</ele>
        <time>2026-02-08T15:01:52.364Z</time>
      </trkpt>
      <trkpt lat="44.20934" lon="0.62165">
        <ele>56.3</ele>
        <time>2026-02-08T15:02:04.364Z</time>
      </trkpt>
      <trkpt lat="44.20933" lon="0.62165">
        <ele>55.9</ele>
        <time>2026-02-08T15:02:08.364Z</time>
      </trkpt>
      <trkpt lat="44.2093" lon="0.6216">
        <ele>55.1</ele>
        <time>2026-02-08T15:02:16.364Z</time>
      </trkpt>
      <trkpt lat="44.20927" lon="0.62157">
        <ele>54.6</ele>
        <time>2026-02-08T15:02:20.364Z</time>
      </trkpt>
      <trkpt lat="44.20926" lon="0.62155">
        <ele>54.3</ele>
        <time>2026-02-08T15:02:22.364Z</time>
      </trkpt>
      <trkpt lat="44.20928" lon="0.62149">
        <ele>54.7</ele>
        <time>2026-02-08T15:02:26.364Z</time>
      </trkpt>
      <trkpt lat="44.2093" lon="0.62147">
        <ele>55.1</ele>
        <time>2026-02-08T15:02:28.364Z</time>
      </trkpt>
      <trkpt lat="44.20939" lon="0.62121">
        <ele>54.7</ele>
        <time>2026-02-08T15:02:44.364Z</time>
      </trkpt>
      <trkpt lat="44.20942" lon="0.6211">
        <ele>53.9</ele>
        <time>2026-02-08T15:02:52.364Z</time>
      </trkpt>
      <trkpt lat="44.20951" lon="0.62052">
        <ele>53.7</ele>
        <time>2026-02-08T15:03:24.364Z</time>
      </trkpt>
      <trkpt lat="44.20954" lon="0.62021">
        <ele>54.3</ele>
        <time>2026-02-08T15:03:40.364Z</time>
      </trkpt>
      <trkpt lat="44.20952" lon="0.61994">
        <ele>53.1</ele>
        <time>2026-02-08T15:03:56.364Z</time>
      </trkpt>
      <trkpt lat="44.20948" lon="0.61972">
        <ele>52.4</ele>
        <time>2026-02-08T15:04:08.364Z</time>
      </trkpt>
      <trkpt lat="44.20947" lon="0.61959">
        <ele>52.7</ele>
        <time>2026-02-08T15:04:16.364Z</time>
      </trkpt>
      <trkpt lat="44.20942" lon="0.61932">
        <ele>52.9</ele>
        <time>2026-02-08T15:04:32.364Z</time>
      </trkpt>
      <trkpt lat="44.2094" lon="0.61906">
        <ele>52.8</ele>
        <time>2026-02-08T15:04:48.364Z</time>
      </trkpt>
      <trkpt lat="44.20938" lon="0.61895">
        <ele>52.8</ele>
        <time>2026-02-08T15:04:56.364Z</time>
      </trkpt>
      <trkpt lat="44.20937" lon="0.61884">
        <ele>53.1</ele>
        <time>2026-02-08T15:05:04.364Z</time>
      </trkpt>
      <trkpt lat="44.20935" lon="0.61879">
        <ele>53.4</ele>
        <time>2026-02-08T15:05:08.364Z</time>
      </trkpt>
      <trkpt lat="44.20926" lon="0.61824">
        <ele>54.2</ele>
        <time>2026-02-08T15:05:40.364Z</time>
      </trkpt>
      <trkpt lat="44.20923" lon="0.61791">
        <ele>54</ele>
        <time>2026-02-08T15:06:00.364Z</time>
      </trkpt>
      <trkpt lat="44.20913" lon="0.61742">
        <ele>52.2</ele>
        <time>2026-02-08T15:06:32.364Z</time>
      </trkpt>
      <trkpt lat="44.20913" lon="0.61726">
        <ele>52.8</ele>
        <time>2026-02-08T15:06:44.364Z</time>
      </trkpt>
      <trkpt lat="44.2091" lon="0.61714">
        <ele>53.2</ele>
        <time>2026-02-08T15:06:52.364Z</time>
      </trkpt>
      <trkpt lat="44.20908" lon="0.61687">
        <ele>54.4</ele>
        <time>2026-02-08T15:07:08.364Z</time>
      </trkpt>
      <trkpt lat="44.20896" lon="0.61609">
        <ele>55</ele>
        <time>2026-02-08T15:07:56.364Z</time>
      </trkpt>
      <trkpt lat="44.20894" lon="0.61582">
        <ele>54.5</ele>
        <time>2026-02-08T15:08:12.364Z</time>
      </trkpt>
      <trkpt lat="44.20894" lon="0.61569">
        <ele>55.1</ele>
        <time>2026-02-08T15:08:20.364Z</time>
      </trkpt>
      <trkpt lat="44.20891" lon="0.61543">
        <ele>54.2</ele>
        <time>2026-02-08T15:08:36.364Z</time>
      </trkpt>
      <trkpt lat="44.2089" lon="0.61503">
        <ele>53.4</ele>
        <time>2026-02-08T15:09:00.364Z</time>
      </trkpt>
      <trkpt lat="44.20893" lon="0.61451">
        <ele>53.4</ele>
        <time>2026-02-08T15:09:32.364Z</time>
      </trkpt>
      <trkpt lat="44.20898" lon="0.61394">
        <ele>54</ele>
        <time>2026-02-08T15:10:08.364Z</time>
      </trkpt>
      <trkpt lat="44.20903" lon="0.61368">
        <ele>54.6</ele>
        <time>2026-02-08T15:10:24.364Z</time>
      </trkpt>
      <trkpt lat="44.20909" lon="0.61344">
        <ele>54.3</ele>
        <time>2026-02-08T15:10:40.364Z</time>
      </trkpt>
      <trkpt lat="44.20912" lon="0.6133">
        <ele>53.4</ele>
        <time>2026-02-08T15:10:48.364Z</time>
      </trkpt>
      <trkpt lat="44.20918" lon="0.61305">
        <ele>52.9</ele>
        <time>2026-02-08T15:11:04.364Z</time>
      </trkpt>
      <trkpt lat="44.20922" lon="0.61293">
        <ele>54.7</ele>
        <time>2026-02-08T15:11:12.364Z</time>
      </trkpt>
      <trkpt lat="44.20933" lon="0.61236">
        <ele>55.5</ele>
        <time>2026-02-08T15:11:44.364Z</time>
      </trkpt>
      <trkpt lat="44.20937" lon="0.61217">
        <ele>54.7</ele>
        <time>2026-02-08T15:11:56.364Z</time>
      </trkpt>
      <trkpt lat="44.20941" lon="0.61208">
        <ele>54.6</ele>
        <time>2026-02-08T15:12:04.364Z</time>
      </trkpt>
      <trkpt lat="44.20944" lon="0.61189">
        <ele>54.2</ele>
        <time>2026-02-08T15:12:20.364Z</time>
      </trkpt>
      <trkpt lat="44.20945" lon="0.61173">
        <ele>54.9</ele>
        <time>2026-02-08T15:12:30.364Z</time>
      </trkpt>
      <trkpt lat="44.20939" lon="0.61158">
        <ele>54.9</ele>
        <time>2026-02-08T15:12:38.364Z</time>
      </trkpt>
      <trkpt lat="44.20938" lon="0.61141">
        <ele>55.7</ele>
        <time>2026-02-08T15:12:50.364Z</time>
      </trkpt>
      <trkpt lat="44.20935" lon="0.61134">
        <ele>55.3</ele>
        <time>2026-02-08T15:12:58.364Z</time>
      </trkpt>
      <trkpt lat="44.20939" lon="0.6113">
        <ele>56</ele>
        <time>2026-02-08T15:13:28.364Z</time>
      </trkpt>
      <trkpt lat="44.20944" lon="0.61125">
        <ele>57</ele>
        <time>2026-02-08T15:13:34.364Z</time>
      </trkpt>
      <trkpt lat="44.20936" lon="0.61111">
        <ele>55.5</ele>
        <time>2026-02-08T15:14:22.364Z</time>
      </trkpt>
      <trkpt lat="44.20929" lon="0.61115">
        <ele>54.2</ele>
        <time>2026-02-08T15:14:30.364Z</time>
      </trkpt>
      <trkpt lat="44.20916" lon="0.61124">
        <ele>52.1</ele>
        <time>2026-02-08T15:14:42.364Z</time>
      </trkpt>
      <trkpt lat="44.20914" lon="0.61127">
        <ele>52.4</ele>
        <time>2026-02-08T15:14:44.364Z</time>
      </trkpt>
      <trkpt lat="44.20901" lon="0.61132">
        <ele>54.2</ele>
        <time>2026-02-08T15:14:56.364Z</time>
      </trkpt>
      <trkpt lat="44.20899" lon="0.61131">
        <ele>54.4</ele>
        <time>2026-02-08T15:14:58.364Z</time>
      </trkpt>
      <trkpt lat="44.20898" lon="0.61125">
        <ele>54.4</ele>
        <time>2026-02-08T15:15:02.364Z</time>
      </trkpt>
      <trkpt lat="44.20895" lon="0.61122">
        <ele>54.7</ele>
        <time>2026-02-08T15:15:06.364Z</time>
      </trkpt>
      <trkpt lat="44.20892" lon="0.61117">
        <ele>54.8</ele>
        <time>2026-02-08T15:15:10.364Z</time>
      </trkpt>
      <trkpt lat="44.20888" lon="0.61094">
        <ele>53.3</ele>
        <time>2026-02-08T15:15:26.364Z</time>
      </trkpt>
      <trkpt lat="44.20885" lon="0.61087">
        <ele>52</ele>
        <time>2026-02-08T15:15:30.364Z</time>
      </trkpt>
      <trkpt lat="44.20884" lon="0.61079">
        <ele>51.1</ele>
        <time>2026-02-08T15:15:34.364Z</time>
      </trkpt>
      <trkpt lat="44.20883" lon="0.61065">
        <ele>50.1</ele>
        <time>2026-02-08T15:15:42.364Z</time>
      </trkpt>
      <trkpt lat="44.20881" lon="0.61052">
        <ele>49.3</ele>
        <time>2026-02-08T15:15:50.364Z</time>
      </trkpt>
      <trkpt lat="44.20876" lon="0.61032">
        <ele>48.6</ele>
        <time>2026-02-08T15:16:02.364Z</time>
      </trkpt>
      <trkpt lat="44.20874" lon="0.61019">
        <ele>49.2</ele>
        <time>2026-02-08T15:16:10.364Z</time>
      </trkpt>
      <trkpt lat="44.2087" lon="0.61006">
        <ele>50.5</ele>
        <time>2026-02-08T15:16:18.364Z</time>
      </trkpt>
      <trkpt lat="44.20868" lon="0.60986">
        <ele>51.6</ele>
        <time>2026-02-08T15:16:30.364Z</time>
      </trkpt>
      <trkpt lat="44.20859" lon="0.60966">
        <ele>51.6</ele>
        <time>2026-02-08T15:16:42.364Z</time>
      </trkpt>
      <trkpt lat="44.20858" lon="0.60953">
        <ele>51.3</ele>
        <time>2026-02-08T15:16:50.364Z</time>
      </trkpt>
      <trkpt lat="44.20859" lon="0.60926">
        <ele>48.3</ele>
        <time>2026-02-08T15:17:06.364Z</time>
      </trkpt>
      <trkpt lat="44.20858" lon="0.60912">
        <ele>45.8</ele>
        <time>2026-02-08T15:17:14.364Z</time>
      </trkpt>
      <trkpt lat="44.20859" lon="0.60907">
        <ele>45.1</ele>
        <time>2026-02-08T15:17:18.364Z</time>
      </trkpt>
      <trkpt lat="44.20858" lon="0.60895">
        <ele>43</ele>
        <time>2026-02-08T15:17:26.364Z</time>
      </trkpt>
      <trkpt lat="44.20853" lon="0.60871">
        <ele>41.6</ele>
        <time>2026-02-08T15:17:42.364Z</time>
      </trkpt>
      <trkpt lat="44.2085" lon="0.60861">
        <ele>41.2</ele>
        <time>2026-02-08T15:17:50.364Z</time>
      </trkpt>
      <trkpt lat="44.20812" lon="0.60702">
        <ele>41.8</ele>
        <time>2026-02-08T15:19:30.364Z</time>
      </trkpt>
      <trkpt lat="44.2081" lon="0.60695">
        <ele>42</ele>
        <time>2026-02-08T15:19:34.364Z</time>
      </trkpt>
      <trkpt lat="44.20808" lon="0.60682">
        <ele>39.5</ele>
        <time>2026-02-08T15:19:42.364Z</time>
      </trkpt>
      <trkpt lat="44.20798" lon="0.60643">
        <ele>36</ele>
        <time>2026-02-08T15:20:06.364Z</time>
      </trkpt>
      <trkpt lat="44.20763" lon="0.6049">
        <ele>36</ele>
        <time>2026-02-08T15:21:42.364Z</time>
      </trkpt>
      <trkpt lat="44.20758" lon="0.60466">
        <ele>36.2</ele>
        <time>2026-02-08T15:21:58.364Z</time>
      </trkpt>
      <trkpt lat="44.20751" lon="0.6044">
        <ele>37.8</ele>
        <time>2026-02-08T15:22:14.364Z</time>
      </trkpt>
      <trkpt lat="44.20729" lon="0.60341">
        <ele>42</ele>
        <time>2026-02-08T15:23:18.364Z</time>
      </trkpt>
      <trkpt lat="44.20723" lon="0.60321">
        <ele>41.5</ele>
        <time>2026-02-08T15:23:34.364Z</time>
      </trkpt>
      <trkpt lat="44.20719" lon="0.60302">
        <ele>41.2</ele>
        <time>2026-02-08T15:23:46.364Z</time>
      </trkpt>
      <trkpt lat="44.20717" lon="0.60296">
        <ele>41.5</ele>
        <time>2026-02-08T15:23:50.364Z</time>
      </trkpt>
      <trkpt lat="44.20715" lon="0.60286">
        <ele>41.8</ele>
        <time>2026-02-08T15:23:58.364Z</time>
      </trkpt>
      <trkpt lat="44.20711" lon="0.60273">
        <ele>42.7</ele>
        <time>2026-02-08T15:24:06.364Z</time>
      </trkpt>
      <trkpt lat="44.20709" lon="0.60267">
        <ele>43.7</ele>
        <time>2026-02-08T15:24:10.364Z</time>
      </trkpt>
      <trkpt lat="44.20699" lon="0.60243">
        <ele>49.1</ele>
        <time>2026-02-08T15:24:26.364Z</time>
      </trkpt>
      <trkpt lat="44.20696" lon="0.60239">
        <ele>50</ele>
        <time>2026-02-08T15:24:30.364Z</time>
      </trkpt>
      <trkpt lat="44.20692" lon="0.60239">
        <ele>50.1</ele>
        <time>2026-02-08T15:24:34.364Z</time>
      </trkpt>
      <trkpt lat="44.20685" lon="0.60245">
        <ele>49.1</ele>
        <time>2026-02-08T15:24:42.364Z</time>
      </trkpt>
      <trkpt lat="44.20684" lon="0.60247">
        <ele>48.9</ele>
        <time>2026-02-08T15:26:50.364Z</time>
      </trkpt>
      <trkpt lat="44.20667" lon="0.60273">
        <ele>46.3</ele>
        <time>2026-02-08T15:27:30.364Z</time>
      </trkpt>
      <trkpt lat="44.20662" lon="0.60281">
        <ele>45.8</ele>
        <time>2026-02-08T15:27:38.364Z</time>
      </trkpt>
      <trkpt lat="44.20651" lon="0.60296">
        <ele>45.5</ele>
        <time>2026-02-08T15:27:54.364Z</time>
      </trkpt>
      <trkpt lat="44.20648" lon="0.60301">
        <ele>45.4</ele>
        <time>2026-02-08T15:27:58.364Z</time>
      </trkpt>
      <trkpt lat="44.20648" lon="0.60328">
        <ele>44.6</ele>
        <time>2026-02-08T15:28:18.364Z</time>
      </trkpt>
      <trkpt lat="44.20649" lon="0.6034">
        <ele>44.1</ele>
        <time>2026-02-08T15:28:26.364Z</time>
      </trkpt>
      <trkpt lat="44.20652" lon="0.60352">
        <ele>43.7</ele>
        <time>2026-02-08T15:28:34.364Z</time>
      </trkpt>
      <trkpt lat="44.20652" lon="0.60359">
        <ele>43.6</ele>
        <time>2026-02-08T15:28:38.364Z</time>
      </trkpt>
      <trkpt lat="44.20647" lon="0.6037">
        <ele>43.7</ele>
        <time>2026-02-08T15:28:46.364Z</time>
      </trkpt>
      <trkpt lat="44.20639" lon="0.60379">
        <ele>44</ele>
        <time>2026-02-08T15:28:54.364Z</time>
      </trkpt>
      <trkpt lat="44.20633" lon="0.60389">
        <ele>44</ele>
        <time>2026-02-08T15:29:02.364Z</time>
      </trkpt>
      <trkpt lat="44.20604" lon="0.60423">
        <ele>44.3</ele>
        <time>2026-02-08T15:29:34.364Z</time>
      </trkpt>
      <trkpt lat="44.20592" lon="0.60434">
        <ele>44.2</ele>
        <time>2026-02-08T15:29:46.364Z</time>
      </trkpt>
      <trkpt lat="44.20585" lon="0.60442">
        <ele>44.7</ele>
        <time>2026-02-08T15:29:54.364Z</time>
      </trkpt>
      <trkpt lat="44.2057" lon="0.60457">
        <ele>44</ele>
        <time>2026-02-08T15:30:10.364Z</time>
      </trkpt>
      <trkpt lat="44.20528" lon="0.60501">
        <ele>44.9</ele>
        <time>2026-02-08T15:30:54.364Z</time>
      </trkpt>
      <trkpt lat="44.20522" lon="0.60504">
        <ele>44.2</ele>
        <time>2026-02-08T15:31:00.364Z</time>
      </trkpt>
      <trkpt lat="44.20515" lon="0.60512">
        <ele>43.2</ele>
        <time>2026-02-08T15:31:08.364Z</time>
      </trkpt>
      <trkpt lat="44.20498" lon="0.6052">
        <ele>42.5</ele>
        <time>2026-02-08T15:31:24.364Z</time>
      </trkpt>
      <trkpt lat="44.20485" lon="0.60527">
        <ele>43.6</ele>
        <time>2026-02-08T15:31:36.364Z</time>
      </trkpt>
      <trkpt lat="44.20449" lon="0.60541">
        <ele>43.6</ele>
        <time>2026-02-08T15:32:08.364Z</time>
      </trkpt>
      <trkpt lat="44.20427" lon="0.6055">
        <ele>43.3</ele>
        <time>2026-02-08T15:32:28.364Z</time>
      </trkpt>
      <trkpt lat="44.20423" lon="0.60554">
        <ele>43.5</ele>
        <time>2026-02-08T15:32:32.364Z</time>
      </trkpt>
      <trkpt lat="44.20415" lon="0.60556">
        <ele>44</ele>
        <time>2026-02-08T15:32:40.364Z</time>
      </trkpt>
      <trkpt lat="44.20412" lon="0.60558">
        <ele>43.7</ele>
        <time>2026-02-08T15:32:44.364Z</time>
      </trkpt>
      <trkpt lat="44.20408" lon="0.60559">
        <ele>43.7</ele>
        <time>2026-02-08T15:32:48.364Z</time>
      </trkpt>
      <trkpt lat="44.20372" lon="0.60574">
        <ele>43.2</ele>
        <time>2026-02-08T15:33:20.364Z</time>
      </trkpt>
      <trkpt lat="44.20351" lon="0.60582">
        <ele>43.8</ele>
        <time>2026-02-08T15:33:40.364Z</time>
      </trkpt>
      <trkpt lat="44.20343" lon="0.6058">
        <ele>44.3</ele>
        <time>2026-02-08T15:33:48.364Z</time>
      </trkpt>
      <trkpt lat="44.20334" lon="0.60579">
        <ele>44.8</ele>
        <time>2026-02-08T15:33:56.364Z</time>
      </trkpt>
      <trkpt lat="44.20325" lon="0.60579">
        <ele>44.8</ele>
        <time>2026-02-08T15:34:04.364Z</time>
      </trkpt>
      <trkpt lat="44.20307" lon="0.60586">
        <ele>44.8</ele>
        <time>2026-02-08T15:34:20.364Z</time>
      </trkpt>
      <trkpt lat="44.20299" lon="0.60592">
        <ele>44.1</ele>
        <time>2026-02-08T15:34:28.364Z</time>
      </trkpt>
      <trkpt lat="44.20298" lon="0.60596">
        <ele>43.9</ele>
        <time>2026-02-08T15:34:32.364Z</time>
      </trkpt>
      <trkpt lat="44.20297" lon="0.60601">
        <ele>43.7</ele>
        <time>2026-02-08T15:34:36.364Z</time>
      </trkpt>
      <trkpt lat="44.20294" lon="0.60604">
        <ele>43.6</ele>
        <time>2026-02-08T15:34:40.364Z</time>
      </trkpt>
      <trkpt lat="44.20285" lon="0.6061">
        <ele>43.7</ele>
        <time>2026-02-08T15:34:48.364Z</time>
      </trkpt>
      <trkpt lat="44.20277" lon="0.60613">
        <ele>43.9</ele>
        <time>2026-02-08T15:34:56.364Z</time>
      </trkpt>
      <trkpt lat="44.20265" lon="0.60621">
        <ele>43.3</ele>
        <time>2026-02-08T15:35:06.364Z</time>
      </trkpt>
      <trkpt lat="44.20248" lon="0.60626">
        <ele>43</ele>
        <time>2026-02-08T15:35:22.364Z</time>
      </trkpt>
      <trkpt lat="44.2024" lon="0.6063">
        <ele>42.9</ele>
        <time>2026-02-08T15:35:30.364Z</time>
      </trkpt>
      <trkpt lat="44.20232" lon="0.60632">
        <ele>43</ele>
        <time>2026-02-08T15:35:38.364Z</time>
      </trkpt>
      <trkpt lat="44.2021" lon="0.60644">
        <ele>43.5</ele>
        <time>2026-02-08T15:35:58.364Z</time>
      </trkpt>
      <trkpt lat="44.202" lon="0.60645">
        <ele>44.1</ele>
        <time>2026-02-08T15:36:06.364Z</time>
      </trkpt>
      <trkpt lat="44.20191" lon="0.60648">
        <ele>44.4</ele>
        <time>2026-02-08T15:36:14.364Z</time>
      </trkpt>
      <trkpt lat="44.20178" lon="0.60649">
        <ele>44.5</ele>
        <time>2026-02-08T15:36:28.364Z</time>
      </trkpt>
      <trkpt lat="44.20176" lon="0.60653">
        <ele>44.3</ele>
        <time>2026-02-08T15:36:32.364Z</time>
      </trkpt>
      <trkpt lat="44.2017" lon="0.60655">
        <ele>44.3</ele>
        <time>2026-02-08T15:36:36.364Z</time>
      </trkpt>
      <trkpt lat="44.20161" lon="0.60658">
        <ele>44.4</ele>
        <time>2026-02-08T15:36:44.364Z</time>
      </trkpt>
      <trkpt lat="44.20153" lon="0.60658">
        <ele>44.5</ele>
        <time>2026-02-08T15:36:52.364Z</time>
      </trkpt>
      <trkpt lat="44.20149" lon="0.60657">
        <ele>44.5</ele>
        <time>2026-02-08T15:36:56.364Z</time>
      </trkpt>
      <trkpt lat="44.20139" lon="0.6066">
        <ele>44.8</ele>
        <time>2026-02-08T15:37:08.364Z</time>
      </trkpt>
      <trkpt lat="44.20124" lon="0.60665">
        <ele>45</ele>
        <time>2026-02-08T15:37:46.364Z</time>
      </trkpt>
      <trkpt lat="44.20112" lon="0.60673">
        <ele>44.5</ele>
        <time>2026-02-08T15:37:54.364Z</time>
      </trkpt>
      <trkpt lat="44.20102" lon="0.60676">
        <ele>44.5</ele>
        <time>2026-02-08T15:38:04.364Z</time>
      </trkpt>
      <trkpt lat="44.20096" lon="0.6068">
        <ele>44.6</ele>
        <time>2026-02-08T15:38:10.364Z</time>
      </trkpt>
      <trkpt lat="44.20087" lon="0.60686">
        <ele>44.8</ele>
        <time>2026-02-08T15:38:14.364Z</time>
      </trkpt>
      <trkpt lat="44.20073" lon="0.60693">
        <ele>45</ele>
        <time>2026-02-08T15:38:32.364Z</time>
      </trkpt>
      <trkpt lat="44.20063" lon="0.60698">
        <ele>44.7</ele>
        <time>2026-02-08T15:38:48.364Z</time>
      </trkpt>
      <trkpt lat="44.20056" lon="0.60702">
        <ele>44.5</ele>
        <time>2026-02-08T15:38:56.364Z</time>
      </trkpt>
      <trkpt lat="44.20046" lon="0.60709">
        <ele>44.3</ele>
        <time>2026-02-08T15:39:08.364Z</time>
      </trkpt>
      <trkpt lat="44.20044" lon="0.60711">
        <ele>44.3</ele>
        <time>2026-02-08T15:39:10.364Z</time>
      </trkpt>
      <trkpt lat="44.20034" lon="0.60711">
        <ele>44.7</ele>
        <time>2026-02-08T15:39:18.364Z</time>
      </trkpt>
      <trkpt lat="44.20025" lon="0.60714">
        <ele>45</ele>
        <time>2026-02-08T15:39:26.364Z</time>
      </trkpt>
      <trkpt lat="44.20003" lon="0.60724">
        <ele>44.9</ele>
        <time>2026-02-08T15:39:46.364Z</time>
      </trkpt>
      <trkpt lat="44.19988" lon="0.60737">
        <ele>44.4</ele>
        <time>2026-02-08T15:40:02.364Z</time>
      </trkpt>
      <trkpt lat="44.1998" lon="0.60742">
        <ele>44.6</ele>
        <time>2026-02-08T15:40:10.364Z</time>
      </trkpt>
      <trkpt lat="44.19971" lon="0.60744">
        <ele>45</ele>
        <time>2026-02-08T15:40:18.364Z</time>
      </trkpt>
      <trkpt lat="44.19961" lon="0.60743">
        <ele>45</ele>
        <time>2026-02-08T15:40:26.364Z</time>
      </trkpt>
      <trkpt lat="44.19953" lon="0.60739">
        <ele>45</ele>
        <time>2026-02-08T15:40:34.364Z</time>
      </trkpt>
      <trkpt lat="44.19946" lon="0.60732">
        <ele>45</ele>
        <time>2026-02-08T15:40:42.364Z</time>
      </trkpt>
      <trkpt lat="44.19933" lon="0.60726">
        <ele>45</ele>
        <time>2026-02-08T15:40:54.364Z</time>
      </trkpt>
      <trkpt lat="44.19929" lon="0.60722">
        <ele>45</ele>
        <time>2026-02-08T15:40:58.364Z</time>
      </trkpt>
      <trkpt lat="44.19915" lon="0.60713">
        <ele>45</ele>
        <time>2026-02-08T15:41:12.364Z</time>
      </trkpt>
      <trkpt lat="44.19914" lon="0.60707">
        <ele>45</ele>
        <time>2026-02-08T15:41:16.364Z</time>
      </trkpt>
      <trkpt lat="44.19926" lon="0.60659">
        <ele>45</ele>
        <time>2026-02-08T15:41:50.364Z</time>
      </trkpt>
    </trkseg>
  </trk>
</gpx>